ARG1375 TNCA-SAEZ
Flight info
| Callsign | ARG1375 |
|---|---|
| Flight time | 6h 43m |
| Altitude | 35000 |
| Route | AMBAS1F AMBAS DCT UBLAX UG444 EJA/N0506F330 UP525 RCO UL417 LOKOX/N0496F350 UM784 BOLET UL404 ISOPO UT672 MULTA UW24 SNT SNT7X |
| Aircraft | B77W/H-SDE1E2E3FGHIJ2J3J4J5M1RWXY/LB1D1 |
Departure
| Time | 2026-04-28 15:39 |
|---|---|
| Airport | Queen Beatrix International Airport (TNCA) |
Arrival
| Time | 2026-04-28 22:22 |
|---|---|
| Airport | Ezeiza International Airport - Ministro Pistarini (SAEZ) |
| Time | Latitude | Longitude | Altitude | Speed | Heading |
|---|---|---|---|---|---|
| 2026-04-28 15:05 | 12.50246 | -70.00711 | 60 ft | 0 kts | 14° |
| 2026-04-28 15:27 | 12.50244 | -70.00711 | 66 ft | 1 kts | 14° |
| 2026-04-28 15:27 | 12.50237 | -70.00713 | 57 ft | 1 kts | 14° |
| 2026-04-28 15:28 | 12.50230 | -70.00715 | 57 ft | 1 kts | 14° |
| 2026-04-28 15:28 | 12.50223 | -70.00717 | 57 ft | 1 kts | 13° |
| 2026-04-28 15:28 | 12.50216 | -70.00718 | 57 ft | 1 kts | 12° |
| 2026-04-28 15:28 | 12.50209 | -70.00720 | 57 ft | 1 kts | 11° |
| 2026-04-28 15:29 | 12.50202 | -70.00721 | 57 ft | 1 kts | 7° |
| 2026-04-28 15:29 | 12.50195 | -70.00722 | 57 ft | 1 kts | 359° |
| 2026-04-28 15:29 | 12.50189 | -70.00722 | 57 ft | 1 kts | 342° |
| 2026-04-28 15:29 | 12.50183 | -70.00720 | 57 ft | 1 kts | 318° |
| 2026-04-28 15:30 | 12.50180 | -70.00716 | 57 ft | 1 kts | 302° |
| 2026-04-28 15:30 | 12.50178 | -70.00713 | 57 ft | 0 kts | 296° |
| 2026-04-28 15:30 | 12.50176 | -70.00710 | 57 ft | 0 kts | 293° |
| 2026-04-28 15:30 | 12.50175 | -70.00707 | 57 ft | 0 kts | 290° |
| 2026-04-28 15:31 | 12.50174 | -70.00704 | 57 ft | 0 kts | 289° |
| 2026-04-28 15:31 | 12.50173 | -70.00701 | 57 ft | 0 kts | 288° |
| 2026-04-28 15:31 | 12.50173 | -70.00700 | 57 ft | 0 kts | 288° |
| 2026-04-28 15:33 | 12.50175 | -70.00706 | 57 ft | 2 kts | 287° |
| 2026-04-28 15:33 | 12.50182 | -70.00733 | 58 ft | 5 kts | 286° |
| 2026-04-28 15:33 | 12.50195 | -70.00779 | 59 ft | 7 kts | 285° |
| 2026-04-28 15:33 | 12.50208 | -70.00831 | 62 ft | 8 kts | 284° |
| 2026-04-28 15:34 | 12.50221 | -70.00886 | 58 ft | 8 kts | 283° |
| 2026-04-28 15:34 | 12.50234 | -70.00943 | 60 ft | 8 kts | 283° |
| 2026-04-28 15:34 | 12.50248 | -70.01003 | 56 ft | 9 kts | 283° |
| 2026-04-28 15:34 | 12.50256 | -70.01065 | 53 ft | 9 kts | 266° |
| 2026-04-28 15:35 | 12.50240 | -70.01138 | 55 ft | 13 kts | 265° |
| 2026-04-28 15:35 | 12.50286 | -70.01398 | 48 ft | 24 kts | 283° |
| 2026-04-28 15:35 | 12.50330 | -70.01584 | 46 ft | 29 kts | 283° |
| 2026-04-28 15:36 | 12.50379 | -70.01781 | 45 ft | 28 kts | 284° |
| 2026-04-28 15:36 | 12.50426 | -70.01975 | 41 ft | 28 kts | 284° |
| 2026-04-28 15:36 | 12.50473 | -70.02168 | 37 ft | 28 kts | 283° |
| 2026-04-28 15:36 | 12.50517 | -70.02362 | 33 ft | 28 kts | 284° |
| 2026-04-28 15:37 | 12.50556 | -70.02517 | 30 ft | 22 kts | 284° |
| 2026-04-28 15:37 | 12.50564 | -70.02668 | 27 ft | 22 kts | 251° |
| 2026-04-28 15:37 | 12.50490 | -70.02790 | 27 ft | 18 kts | 211° |
| 2026-04-28 15:37 | 12.50434 | -70.02781 | 27 ft | 11 kts | 134° |
| 2026-04-28 15:38 | 12.50418 | -70.02691 | 28 ft | 0 kts | 104° |
| 2026-04-28 15:38 | 12.50400 | -70.02615 | 29 ft | 25 kts | 104° |
| 2026-04-28 15:38 | 12.50297 | -70.02184 | 36 ft | 102 kts | 103° |
| 2026-04-28 15:39 | 12.50068 | -70.01234 | 55 ft | 175 kts | 104° |
| 2026-04-28 15:39 | 12.49755 | -69.99924 | 570 ft | 191 kts | 105° |
| 2026-04-28 15:39 | 12.49434 | -69.98588 | 1514 ft | 192 kts | 102° |
| 2026-04-28 15:39 | 12.49118 | -69.97240 | 2346 ft | 200 kts | 103° |
| 2026-04-28 15:40 | 12.48773 | -69.95782 | 2696 ft | 218 kts | 103° |
| 2026-04-28 15:40 | 12.48590 | -69.94198 | 3046 ft | 234 kts | 82° |
| 2026-04-28 15:40 | 12.49247 | -69.92616 | 3463 ft | 253 kts | 54° |
| 2026-04-28 15:40 | 12.50635 | -69.91465 | 4189 ft | 265 kts | 30° |
| 2026-04-28 15:41 | 12.52405 | -69.90811 | 4832 ft | 275 kts | 19° |
| 2026-04-28 15:41 | 12.54253 | -69.90337 | 5505 ft | 279 kts | 18° |
| 2026-04-28 15:41 | 12.56161 | -69.89882 | 6152 ft | 284 kts | 17° |
| 2026-04-28 15:41 | 12.58093 | -69.89419 | 6814 ft | 286 kts | 17° |
| 2026-04-28 15:42 | 12.60041 | -69.88941 | 7440 ft | 290 kts | 18° |
| 2026-04-28 15:42 | 12.62015 | -69.88445 | 8054 ft | 293 kts | 18° |
| 2026-04-28 15:42 | 12.64009 | -69.87937 | 8689 ft | 297 kts | 17° |
| 2026-04-28 15:42 | 12.66025 | -69.87416 | 9319 ft | 300 kts | 18° |
| 2026-04-28 15:43 | 12.68059 | -69.86890 | 9936 ft | 304 kts | 17° |
| 2026-04-28 15:43 | 12.70132 | -69.86349 | 10433 ft | 311 kts | 18° |
| 2026-04-28 15:43 | 12.72272 | -69.85785 | 10554 ft | 333 kts | 17° |
| 2026-04-28 15:43 | 12.74581 | -69.85175 | 10744 ft | 353 kts | 17° |
| 2026-04-28 15:44 | 12.77040 | -69.84526 | 10852 ft | 375 kts | 17° |
| 2026-04-28 15:44 | 12.79607 | -69.83856 | 11273 ft | 384 kts | 17° |
| 2026-04-28 15:44 | 12.82207 | -69.83177 | 11928 ft | 387 kts | 17° |
| 2026-04-28 15:44 | 12.84824 | -69.82490 | 12596 ft | 390 kts | 16° |
| 2026-04-28 15:45 | 12.87465 | -69.81914 | 13276 ft | 389 kts | 6° |
| 2026-04-28 15:45 | 12.90172 | -69.82226 | 13853 ft | 394 kts | 341° |
| 2026-04-28 15:45 | 12.92576 | -69.83517 | 14610 ft | 393 kts | 322° |
| 2026-04-28 15:45 | 12.94499 | -69.85548 | 14834 ft | 405 kts | 301° |
| 2026-04-28 15:46 | 12.95338 | -69.87256 | 15118 ft | 406 kts | 288° |
| 2026-04-28 15:46 | 12.95909 | -69.90078 | 15618 ft | 406 kts | 269° |
| 2026-04-28 15:46 | 12.95774 | -69.92965 | 16003 ft | 408 kts | 264° |
| 2026-04-28 15:46 | 12.95547 | -69.95882 | 16480 ft | 413 kts | 263° |
| 2026-04-28 15:47 | 12.95304 | -69.98820 | 16955 ft | 417 kts | 264° |
| 2026-04-28 15:47 | 12.95060 | -70.01806 | 17435 ft | 422 kts | 264° |
| 2026-04-28 15:47 | 12.94823 | -70.04830 | 17932 ft | 426 kts | 264° |
| 2026-04-28 15:47 | 12.94595 | -70.07874 | 18463 ft | 427 kts | 265° |
| 2026-04-28 15:48 | 12.94378 | -70.10880 | 18930 ft | 429 kts | 264° |
| 2026-04-28 15:48 | 12.94160 | -70.13946 | 19398 ft | 431 kts | 264° |
| 2026-04-28 15:48 | 12.93944 | -70.17015 | 19874 ft | 433 kts | 264° |
| 2026-04-28 15:48 | 12.93728 | -70.20106 | 20362 ft | 434 kts | 264° |
| 2026-04-28 15:49 | 12.93513 | -70.23196 | 20793 ft | 436 kts | 264° |
| 2026-04-28 15:49 | 12.93295 | -70.26309 | 21274 ft | 437 kts | 264° |
| 2026-04-28 15:49 | 12.93074 | -70.29430 | 21709 ft | 440 kts | 264° |
| 2026-04-28 15:49 | 12.92854 | -70.32569 | 22165 ft | 441 kts | 264° |
| 2026-04-28 15:50 | 12.92634 | -70.35712 | 22560 ft | 444 kts | 264° |
| 2026-04-28 15:50 | 12.92410 | -70.38881 | 22978 ft | 446 kts | 264° |
| 2026-04-28 15:50 | 12.92186 | -70.42048 | 23436 ft | 447 kts | 264° |
| 2026-04-28 15:50 | 12.91963 | -70.45206 | 23700 ft | 452 kts | 264° |
| 2026-04-28 15:51 | 12.91717 | -70.48415 | 24119 ft | 447 kts | 261° |
| 2026-04-28 15:51 | 12.90923 | -70.51472 | 24452 ft | 444 kts | 244° |
| 2026-04-28 15:51 | 12.89322 | -70.54158 | 24906 ft | 441 kts | 231° |
| 2026-04-28 15:51 | 12.87210 | -70.56411 | 25372 ft | 436 kts | 221° |
| 2026-04-28 15:52 | 12.84912 | -70.58455 | 25752 ft | 437 kts | 221° |
| 2026-04-28 15:52 | 12.82625 | -70.60483 | 26211 ft | 436 kts | 221° |
| 2026-04-28 15:52 | 12.80310 | -70.62540 | 26471 ft | 439 kts | 221° |
| 2026-04-28 15:52 | 12.78015 | -70.64589 | 26917 ft | 441 kts | 221° |
| 2026-04-28 15:53 | 12.75688 | -70.66678 | 27055 ft | 447 kts | 221° |
| 2026-04-28 15:53 | 12.73341 | -70.68794 | 27327 ft | 451 kts | 221° |
| 2026-04-28 15:53 | 12.71019 | -70.70889 | 27619 ft | 453 kts | 221° |
| 2026-04-28 15:53 | 12.68611 | -70.73066 | 27936 ft | 456 kts | 221° |
| 2026-04-28 15:54 | 12.66324 | -70.75136 | 28154 ft | 459 kts | 221° |
| 2026-04-28 15:54 | 12.65948 | -70.75476 | 28198 ft | 460 kts | 221° |
| 2026-04-28 15:54 | 12.63549 | -70.77647 | 28469 ft | 462 kts | 221° |
| 2026-04-28 15:54 | 12.61135 | -70.79831 | 28767 ft | 464 kts | 221° |
| 2026-04-28 15:55 | 12.58706 | -70.82028 | 29017 ft | 467 kts | 221° |
| 2026-04-28 15:55 | 12.56268 | -70.84232 | 29316 ft | 468 kts | 221° |
| 2026-04-28 15:55 | 12.53821 | -70.86443 | 29599 ft | 470 kts | 221° |
| 2026-04-28 15:55 | 12.51355 | -70.88670 | 29809 ft | 473 kts | 221° |
| 2026-04-28 15:56 | 12.48878 | -70.90907 | 30037 ft | 474 kts | 221° |
| 2026-04-28 15:56 | 12.46397 | -70.93147 | 30215 ft | 477 kts | 221° |
| 2026-04-28 15:56 | 12.43911 | -70.95391 | 30379 ft | 478 kts | 221° |
| 2026-04-28 15:56 | 12.41411 | -70.97646 | 30620 ft | 478 kts | 221° |
| 2026-04-28 15:57 | 12.38916 | -70.99897 | 30874 ft | 478 kts | 221° |
| 2026-04-28 15:57 | 12.36428 | -71.02140 | 31141 ft | 477 kts | 221° |
| 2026-04-28 15:57 | 12.33938 | -71.04384 | 31384 ft | 477 kts | 222° |
| 2026-04-28 15:57 | 12.31450 | -71.06626 | 31643 ft | 476 kts | 222° |
| 2026-04-28 15:58 | 12.28968 | -71.08863 | 31894 ft | 475 kts | 222° |
| 2026-04-28 15:58 | 12.26490 | -71.11095 | 32140 ft | 475 kts | 222° |
| 2026-04-28 15:58 | 12.24015 | -71.13324 | 32396 ft | 474 kts | 222° |
| 2026-04-28 15:58 | 12.21544 | -71.15549 | 32648 ft | 473 kts | 222° |
| 2026-04-28 15:59 | 12.19078 | -71.17768 | 32873 ft | 473 kts | 222° |
| 2026-04-28 15:59 | 12.16632 | -71.19970 | 32923 ft | 475 kts | 222° |
| 2026-04-28 15:59 | 12.11656 | -71.24446 | 32976 ft | 472 kts | 222° |
| 2026-04-28 16:00 | 12.06734 | -71.28871 | 32991 ft | 471 kts | 222° |
| 2026-04-28 16:00 | 12.01818 | -71.33288 | 32974 ft | 471 kts | 222° |
| 2026-04-28 16:01 | 11.96934 | -71.37675 | 32980 ft | 470 kts | 222° |
| 2026-04-28 16:01 | 11.92020 | -71.42087 | 32982 ft | 470 kts | 222° |
| 2026-04-28 16:02 | 11.87102 | -71.46499 | 32980 ft | 471 kts | 222° |
| 2026-04-28 16:02 | 11.82183 | -71.50910 | 32980 ft | 471 kts | 222° |
| 2026-04-28 16:03 | 11.77231 | -71.55350 | 32976 ft | 471 kts | 222° |
| 2026-04-28 16:03 | 11.72308 | -71.59760 | 32969 ft | 471 kts | 222° |
| 2026-04-28 16:04 | 11.67400 | -71.64153 | 34191 ft | 479 kts | 221° |
| 2026-04-28 16:04 | 11.64838 | -71.66444 | 33964 ft | 487 kts | 221° |
| 2026-04-28 16:04 | 11.62316 | -71.68701 | 33708 ft | 490 kts | 221° |
| 2026-04-28 16:05 | 11.59753 | -71.70995 | 33465 ft | 490 kts | 221° |
| 2026-04-28 16:05 | 11.57158 | -71.73316 | 33245 ft | 489 kts | 221° |
| 2026-04-28 16:05 | 11.54637 | -71.75571 | 33137 ft | 487 kts | 221° |
| 2026-04-28 16:05 | 11.52103 | -71.77837 | 33067 ft | 483 kts | 221° |
| 2026-04-28 16:06 | 11.47073 | -71.82332 | 33011 ft | 480 kts | 221° |
| 2026-04-28 16:06 | 11.42019 | -71.86847 | 33012 ft | 487 kts | 221° |
| 2026-04-28 16:07 | 11.36900 | -71.91418 | 33004 ft | 490 kts | 221° |
| 2026-04-28 16:08 | 11.29198 | -71.98289 | 33000 ft | 490 kts | 221° |
| 2026-04-28 16:08 | 11.24071 | -72.02861 | 33000 ft | 489 kts | 221° |
| 2026-04-28 16:09 | 11.16410 | -72.09689 | 33000 ft | 487 kts | 221° |
| 2026-04-28 16:10 | 11.08774 | -72.16489 | 33001 ft | 485 kts | 221° |
| 2026-04-28 16:10 | 11.01156 | -72.23267 | 33002 ft | 485 kts | 221° |
| 2026-04-28 16:11 | 10.90995 | -72.32301 | 33001 ft | 485 kts | 221° |
| 2026-04-28 16:12 | 10.83353 | -72.39090 | 33002 ft | 486 kts | 221° |
| 2026-04-28 16:13 | 10.75702 | -72.45882 | 33001 ft | 487 kts | 221° |
| 2026-04-28 16:14 | 10.65491 | -72.54939 | 33001 ft | 487 kts | 221° |
| 2026-04-28 16:15 | 10.55256 | -72.64009 | 33003 ft | 488 kts | 221° |
| 2026-04-28 16:15 | 10.50136 | -72.68543 | 33002 ft | 488 kts | 221° |
| 2026-04-28 16:16 | 10.42457 | -72.75340 | 33001 ft | 488 kts | 221° |
| 2026-04-28 16:17 | 10.34777 | -72.82132 | 33002 ft | 488 kts | 221° |
| 2026-04-28 16:17 | 10.29688 | -72.86631 | 33001 ft | 488 kts | 221° |
| 2026-04-28 16:18 | 10.24533 | -72.91186 | 32998 ft | 488 kts | 221° |
| 2026-04-28 16:18 | 10.19449 | -72.95677 | 33001 ft | 488 kts | 221° |
| 2026-04-28 16:19 | 10.14324 | -73.00202 | 32999 ft | 488 kts | 221° |
| 2026-04-28 16:19 | 10.09205 | -73.04717 | 33000 ft | 488 kts | 221° |
| 2026-04-28 16:20 | 10.04082 | -73.09236 | 33004 ft | 488 kts | 221° |
| 2026-04-28 16:20 | 9.98963 | -73.13750 | 33001 ft | 487 kts | 221° |
| 2026-04-28 16:21 | 9.93840 | -73.18264 | 32999 ft | 488 kts | 221° |
| 2026-04-28 16:21 | 9.88724 | -73.22771 | 33000 ft | 488 kts | 221° |
| 2026-04-28 16:22 | 9.83595 | -73.27287 | 32999 ft | 488 kts | 221° |
| 2026-04-28 16:22 | 9.78476 | -73.31793 | 33001 ft | 487 kts | 221° |
| 2026-04-28 16:23 | 9.73357 | -73.36296 | 33002 ft | 487 kts | 221° |
| 2026-04-28 16:23 | 9.68236 | -73.40799 | 33002 ft | 487 kts | 221° |
| 2026-04-28 16:24 | 9.63113 | -73.45302 | 33000 ft | 487 kts | 221° |
| 2026-04-28 16:24 | 9.57989 | -73.49805 | 33002 ft | 487 kts | 221° |
| 2026-04-28 16:25 | 9.52865 | -73.54305 | 33001 ft | 488 kts | 221° |
| 2026-04-28 16:25 | 9.47740 | -73.58805 | 33002 ft | 488 kts | 221° |
| 2026-04-28 16:26 | 9.42614 | -73.63303 | 33001 ft | 488 kts | 221° |
| 2026-04-28 16:26 | 9.37483 | -73.67804 | 33001 ft | 488 kts | 221° |
| 2026-04-28 16:27 | 9.32385 | -73.72275 | 33000 ft | 488 kts | 221° |
| 2026-04-28 16:28 | 9.24655 | -73.79050 | 33001 ft | 488 kts | 221° |
| 2026-04-28 16:28 | 9.19556 | -73.83517 | 33001 ft | 488 kts | 221° |
| 2026-04-28 16:29 | 9.11862 | -73.90256 | 33001 ft | 488 kts | 221° |
| 2026-04-28 16:29 | 9.06596 | -73.94556 | 32983 ft | 485 kts | 208° |
| 2026-04-28 16:30 | 9.03493 | -73.95865 | 33012 ft | 485 kts | 195° |
| 2026-04-28 16:30 | 9.00173 | -73.96434 | 33001 ft | 486 kts | 182° |
| 2026-04-28 16:30 | 8.96801 | -73.96270 | 33014 ft | 484 kts | 175° |
| 2026-04-28 16:31 | 8.90081 | -73.95614 | 33008 ft | 487 kts | 175° |
| 2026-04-28 16:31 | 8.83300 | -73.95004 | 33009 ft | 490 kts | 175° |
| 2026-04-28 16:32 | 8.76488 | -73.94444 | 33005 ft | 492 kts | 175° |
| 2026-04-28 16:32 | 8.67389 | -73.93721 | 33000 ft | 493 kts | 175° |
| 2026-04-28 16:33 | 8.61668 | -73.93265 | 32999 ft | 492 kts | 175° |
| 2026-04-28 16:33 | 8.53757 | -73.92632 | 32999 ft | 490 kts | 175° |
| 2026-04-28 16:34 | 8.46964 | -73.92088 | 32999 ft | 489 kts | 175° |
| 2026-04-28 16:34 | 8.40192 | -73.91546 | 33000 ft | 488 kts | 175° |
| 2026-04-28 16:35 | 8.33432 | -73.91005 | 33001 ft | 487 kts | 175° |
| 2026-04-28 16:35 | 8.26673 | -73.90464 | 33000 ft | 487 kts | 175° |
| 2026-04-28 16:36 | 8.19911 | -73.89924 | 33002 ft | 487 kts | 175° |
| 2026-04-28 16:36 | 8.13148 | -73.89383 | 33002 ft | 488 kts | 175° |
| 2026-04-28 16:37 | 8.06371 | -73.88842 | 33001 ft | 489 kts | 175° |
| 2026-04-28 16:38 | 7.96199 | -73.88030 | 33003 ft | 489 kts | 175° |
| 2026-04-28 16:38 | 7.89409 | -73.87489 | 33002 ft | 489 kts | 175° |
| 2026-04-28 16:39 | 7.82618 | -73.86947 | 33001 ft | 490 kts | 175° |
| 2026-04-28 16:39 | 7.75831 | -73.86406 | 33000 ft | 490 kts | 175° |
| 2026-04-28 16:40 | 7.69038 | -73.85864 | 33001 ft | 489 kts | 175° |
| 2026-04-28 16:40 | 7.62249 | -73.85323 | 33001 ft | 489 kts | 175° |
| 2026-04-28 16:41 | 7.55466 | -73.84783 | 33001 ft | 489 kts | 175° |
| 2026-04-28 16:41 | 7.48680 | -73.84242 | 33001 ft | 489 kts | 175° |
| 2026-04-28 16:42 | 7.41903 | -73.83703 | 33002 ft | 489 kts | 175° |
| 2026-04-28 16:42 | 7.35121 | -73.83163 | 33001 ft | 489 kts | 175° |
| 2026-04-28 16:43 | 7.28342 | -73.82623 | 33002 ft | 489 kts | 175° |
| 2026-04-28 16:43 | 7.21557 | -73.82084 | 33001 ft | 489 kts | 175° |
| 2026-04-28 16:44 | 7.14780 | -73.81545 | 33001 ft | 489 kts | 175° |
| 2026-04-28 16:44 | 7.08040 | -73.81009 | 33000 ft | 489 kts | 175° |
| 2026-04-28 16:45 | 7.01289 | -73.80240 | 33000 ft | 489 kts | 168° |
| 2026-04-28 16:45 | 6.94691 | -73.78551 | 33009 ft | 489 kts | 165° |
| 2026-04-28 16:46 | 6.88117 | -73.76779 | 33001 ft | 489 kts | 165° |
| 2026-04-28 16:46 | 6.81533 | -73.75033 | 33002 ft | 490 kts | 166° |
| 2026-04-28 16:47 | 6.74937 | -73.73309 | 33000 ft | 490 kts | 166° |
| 2026-04-28 16:47 | 6.68342 | -73.71594 | 33002 ft | 490 kts | 166° |
| 2026-04-28 16:48 | 6.61746 | -73.69879 | 33001 ft | 490 kts | 166° |
| 2026-04-28 16:48 | 6.55150 | -73.68162 | 32999 ft | 490 kts | 166° |
| 2026-04-28 16:49 | 6.48554 | -73.66446 | 33000 ft | 490 kts | 166° |
| 2026-04-28 16:49 | 6.41957 | -73.64729 | 33003 ft | 490 kts | 166° |
| 2026-04-28 16:50 | 6.35357 | -73.63012 | 33001 ft | 490 kts | 166° |
| 2026-04-28 16:50 | 6.28764 | -73.61298 | 33001 ft | 490 kts | 166° |
| 2026-04-28 16:51 | 6.22171 | -73.59584 | 33001 ft | 489 kts | 166° |
| 2026-04-28 16:51 | 6.15575 | -73.57869 | 33003 ft | 489 kts | 166° |
| 2026-04-28 16:52 | 6.08984 | -73.56157 | 33000 ft | 489 kts | 166° |
| 2026-04-28 16:52 | 6.02390 | -73.54444 | 33003 ft | 489 kts | 166° |
| 2026-04-28 16:53 | 5.95846 | -73.52744 | 33002 ft | 489 kts | 166° |
| 2026-04-28 16:53 | 5.89248 | -73.51031 | 33000 ft | 489 kts | 166° |
| 2026-04-28 16:54 | 5.82660 | -73.49321 | 33001 ft | 489 kts | 166° |
| 2026-04-28 16:54 | 5.76066 | -73.47610 | 33001 ft | 489 kts | 166° |
| 2026-04-28 16:55 | 5.69464 | -73.45897 | 33001 ft | 489 kts | 166° |
| 2026-04-28 16:55 | 5.62876 | -73.44188 | 33000 ft | 490 kts | 166° |
| 2026-04-28 16:56 | 5.56279 | -73.42477 | 33004 ft | 489 kts | 166° |
| 2026-04-28 16:56 | 5.49681 | -73.40766 | 33000 ft | 489 kts | 166° |
| 2026-04-28 16:57 | 5.43085 | -73.39057 | 33002 ft | 490 kts | 166° |
| 2026-04-28 16:57 | 5.36492 | -73.37348 | 33003 ft | 490 kts | 166° |
| 2026-04-28 16:58 | 5.29888 | -73.35636 | 33000 ft | 490 kts | 166° |
| 2026-04-28 16:58 | 5.23332 | -73.33938 | 33008 ft | 490 kts | 166° |
| 2026-04-28 16:59 | 5.16681 | -73.32216 | 33002 ft | 490 kts | 166° |
| 2026-04-28 16:59 | 5.10126 | -73.30519 | 32998 ft | 490 kts | 166° |
| 2026-04-28 17:00 | 5.03528 | -73.28811 | 33004 ft | 490 kts | 166° |
| 2026-04-28 17:00 | 4.96931 | -73.27103 | 33000 ft | 490 kts | 166° |
| 2026-04-28 17:01 | 4.90329 | -73.25396 | 33002 ft | 490 kts | 166° |
| 2026-04-28 17:01 | 4.83736 | -73.23690 | 32997 ft | 489 kts | 166° |
| 2026-04-28 17:02 | 4.77141 | -73.21984 | 33001 ft | 489 kts | 166° |
| 2026-04-28 17:02 | 4.70551 | -73.20280 | 32999 ft | 489 kts | 166° |
| 2026-04-28 17:03 | 4.60660 | -73.17722 | 33002 ft | 489 kts | 166° |
| 2026-04-28 17:03 | 4.54075 | -73.16020 | 33001 ft | 489 kts | 166° |
| 2026-04-28 17:04 | 4.44188 | -73.13465 | 33006 ft | 489 kts | 166° |
| 2026-04-28 17:05 | 4.34290 | -73.10907 | 33006 ft | 490 kts | 166° |
| 2026-04-28 17:06 | 4.24388 | -73.08350 | 33003 ft | 490 kts | 166° |
| 2026-04-28 17:06 | 4.14482 | -73.05792 | 32998 ft | 490 kts | 166° |
| 2026-04-28 17:07 | 4.07922 | -73.04097 | 33000 ft | 490 kts | 166° |
| 2026-04-28 17:07 | 4.01319 | -73.02392 | 33001 ft | 490 kts | 166° |
| 2026-04-28 17:08 | 3.94727 | -73.00682 | 33002 ft | 490 kts | 166° |
| 2026-04-28 17:08 | 3.88130 | -72.98968 | 33003 ft | 490 kts | 166° |
| 2026-04-28 17:09 | 3.81536 | -72.97254 | 33000 ft | 490 kts | 166° |
| 2026-04-28 17:09 | 3.74945 | -72.95543 | 33004 ft | 490 kts | 166° |
| 2026-04-28 17:10 | 3.68347 | -72.93830 | 33003 ft | 490 kts | 166° |
| 2026-04-28 17:10 | 3.61754 | -72.92119 | 33001 ft | 490 kts | 166° |
| 2026-04-28 17:11 | 3.55160 | -72.90407 | 33000 ft | 490 kts | 166° |
| 2026-04-28 17:11 | 3.48561 | -72.88696 | 33001 ft | 490 kts | 166° |
| 2026-04-28 17:12 | 3.41971 | -72.86986 | 33004 ft | 490 kts | 166° |
| 2026-04-28 17:12 | 3.35373 | -72.85274 | 33001 ft | 490 kts | 166° |
| 2026-04-28 17:13 | 3.28780 | -72.83564 | 33002 ft | 490 kts | 166° |
| 2026-04-28 17:13 | 3.22183 | -72.81854 | 32999 ft | 490 kts | 166° |
| 2026-04-28 17:14 | 3.15585 | -72.80142 | 33002 ft | 490 kts | 166° |
| 2026-04-28 17:14 | 3.08992 | -72.78433 | 33002 ft | 490 kts | 166° |
| 2026-04-28 17:15 | 3.02393 | -72.76723 | 33003 ft | 490 kts | 166° |
| 2026-04-28 17:15 | 2.95840 | -72.75024 | 33000 ft | 490 kts | 166° |
| 2026-04-28 17:16 | 2.89239 | -72.73313 | 33001 ft | 490 kts | 166° |
| 2026-04-28 17:16 | 2.82640 | -72.71603 | 33001 ft | 490 kts | 166° |
| 2026-04-28 17:17 | 2.76038 | -72.69892 | 32998 ft | 490 kts | 166° |
| 2026-04-28 17:17 | 2.69437 | -72.68181 | 33002 ft | 490 kts | 166° |
| 2026-04-28 17:18 | 2.62840 | -72.66472 | 32997 ft | 490 kts | 166° |
| 2026-04-28 17:18 | 2.56241 | -72.64763 | 33005 ft | 490 kts | 166° |
| 2026-04-28 17:19 | 2.49763 | -72.62687 | 33002 ft | 490 kts | 159° |
| 2026-04-28 17:19 | 2.43446 | -72.60132 | 33004 ft | 490 kts | 158° |
| 2026-04-28 17:20 | 2.38196 | -72.57990 | 32999 ft | 490 kts | 158° |
| 2026-04-28 17:20 | 2.31873 | -72.55440 | 33001 ft | 490 kts | 158° |
| 2026-04-28 17:21 | 2.25544 | -72.52908 | 32999 ft | 490 kts | 158° |
| 2026-04-28 17:22 | 2.16036 | -72.49113 | 32996 ft | 490 kts | 158° |
| 2026-04-28 17:22 | 2.09703 | -72.46583 | 33001 ft | 490 kts | 158° |
| 2026-04-28 17:23 | 2.00203 | -72.42789 | 33001 ft | 490 kts | 158° |
| 2026-04-28 17:23 | 1.93912 | -72.40276 | 33003 ft | 490 kts | 158° |
| 2026-04-28 17:24 | 1.87582 | -72.37749 | 32998 ft | 490 kts | 158° |
| 2026-04-28 17:24 | 1.81212 | -72.35205 | 33003 ft | 490 kts | 158° |
| 2026-04-28 17:25 | 1.71756 | -72.31429 | 33001 ft | 490 kts | 158° |
| 2026-04-28 17:26 | 1.65387 | -72.28886 | 33001 ft | 490 kts | 158° |
| 2026-04-28 17:26 | 1.59053 | -72.26358 | 33001 ft | 490 kts | 158° |
| 2026-04-28 17:27 | 1.52720 | -72.23829 | 33003 ft | 490 kts | 158° |
| 2026-04-28 17:27 | 1.46385 | -72.21300 | 32998 ft | 491 kts | 158° |
| 2026-04-28 17:28 | 1.40046 | -72.18770 | 33002 ft | 490 kts | 158° |
| 2026-04-28 17:28 | 1.30577 | -72.14991 | 33000 ft | 490 kts | 158° |
| 2026-04-28 17:29 | 1.24243 | -72.12463 | 33002 ft | 490 kts | 158° |
| 2026-04-28 17:30 | 1.14738 | -72.08670 | 33002 ft | 490 kts | 158° |
| 2026-04-28 17:30 | 1.05239 | -72.04879 | 33002 ft | 490 kts | 158° |
| 2026-04-28 17:31 | 0.95743 | -72.01090 | 33002 ft | 490 kts | 158° |
| 2026-04-28 17:32 | 0.86242 | -71.97300 | 33001 ft | 490 kts | 158° |
| 2026-04-28 17:32 | 0.79911 | -71.94773 | 33001 ft | 490 kts | 158° |
| 2026-04-28 17:33 | 0.73573 | -71.92245 | 33001 ft | 490 kts | 158° |
| 2026-04-28 17:33 | 0.68311 | -71.90145 | 33002 ft | 490 kts | 158° |
| 2026-04-28 17:34 | 0.60900 | -71.87189 | 33000 ft | 490 kts | 158° |
| 2026-04-28 17:34 | 0.54568 | -71.84662 | 33001 ft | 490 kts | 158° |
| 2026-04-28 17:35 | 0.48227 | -71.82133 | 33001 ft | 490 kts | 158° |
| 2026-04-28 17:35 | 0.41894 | -71.79606 | 33001 ft | 490 kts | 158° |
| 2026-04-28 17:36 | 0.35551 | -71.77075 | 33000 ft | 490 kts | 158° |
| 2026-04-28 17:36 | 0.29216 | -71.74548 | 33002 ft | 490 kts | 158° |
| 2026-04-28 17:37 | 0.22923 | -71.72033 | 33000 ft | 490 kts | 158° |
| 2026-04-28 17:37 | 0.16592 | -71.69497 | 33001 ft | 490 kts | 158° |
| 2026-04-28 17:38 | 0.10218 | -71.66944 | 33004 ft | 490 kts | 158° |
| 2026-04-28 17:38 | 0.03882 | -71.64407 | 33001 ft | 491 kts | 158° |
| 2026-04-28 17:39 | -0.02413 | -71.61887 | 32997 ft | 491 kts | 158° |
| 2026-04-28 17:40 | -0.11916 | -71.58082 | 33002 ft | 490 kts | 158° |
| 2026-04-28 17:40 | -0.18246 | -71.55547 | 33001 ft | 490 kts | 158° |
| 2026-04-28 17:41 | -0.24584 | -71.53010 | 33001 ft | 490 kts | 158° |
| 2026-04-28 17:41 | -0.30914 | -71.50475 | 33000 ft | 490 kts | 158° |
| 2026-04-28 17:42 | -0.37241 | -71.47942 | 33001 ft | 490 kts | 158° |
| 2026-04-28 17:42 | -0.43577 | -71.45405 | 33000 ft | 490 kts | 158° |
| 2026-04-28 17:43 | -0.49906 | -71.42871 | 33002 ft | 490 kts | 158° |
| 2026-04-28 17:43 | -0.56243 | -71.40333 | 33002 ft | 490 kts | 158° |
| 2026-04-28 17:44 | -0.62572 | -71.37799 | 33000 ft | 490 kts | 158° |
| 2026-04-28 17:44 | -0.68906 | -71.35263 | 33001 ft | 490 kts | 158° |
| 2026-04-28 17:45 | -0.75241 | -71.32726 | 33001 ft | 490 kts | 158° |
| 2026-04-28 17:45 | -0.81577 | -71.30188 | 33001 ft | 490 kts | 158° |
| 2026-04-28 17:46 | -0.87909 | -71.27653 | 33001 ft | 490 kts | 158° |
| 2026-04-28 17:46 | -0.94249 | -71.25113 | 33000 ft | 490 kts | 158° |
| 2026-04-28 17:47 | -1.00540 | -71.22594 | 33002 ft | 490 kts | 158° |
| 2026-04-28 17:47 | -1.06870 | -71.20058 | 33005 ft | 491 kts | 158° |
| 2026-04-28 17:48 | -1.13207 | -71.17520 | 33001 ft | 491 kts | 158° |
| 2026-04-28 17:48 | -1.19544 | -71.14981 | 33000 ft | 490 kts | 158° |
| 2026-04-28 17:49 | -1.25880 | -71.12444 | 33002 ft | 490 kts | 158° |
| 2026-04-28 17:49 | -1.32216 | -71.09905 | 33002 ft | 490 kts | 158° |
| 2026-04-28 17:50 | -1.38545 | -71.07369 | 33002 ft | 490 kts | 158° |
| 2026-04-28 17:50 | -1.44885 | -71.04829 | 33001 ft | 490 kts | 158° |
| 2026-04-28 17:51 | -1.51217 | -71.02292 | 33002 ft | 490 kts | 158° |
| 2026-04-28 17:51 | -1.57547 | -70.99755 | 33002 ft | 490 kts | 158° |
| 2026-04-28 17:52 | -1.63883 | -70.97216 | 33002 ft | 490 kts | 158° |
| 2026-04-28 17:52 | -1.73389 | -70.93407 | 33002 ft | 490 kts | 158° |
| 2026-04-28 17:53 | -1.79676 | -70.90886 | 33002 ft | 491 kts | 158° |
| 2026-04-28 17:53 | -1.86016 | -70.88345 | 33002 ft | 491 kts | 158° |
| 2026-04-28 17:54 | -1.92351 | -70.85804 | 33001 ft | 491 kts | 158° |
| 2026-04-28 17:54 | -1.98671 | -70.83242 | 33000 ft | 491 kts | 157° |
| 2026-04-28 17:55 | -2.04947 | -70.80534 | 33001 ft | 491 kts | 156° |
| 2026-04-28 17:55 | -2.11196 | -70.77811 | 33002 ft | 491 kts | 157° |
| 2026-04-28 17:56 | -2.17464 | -70.75104 | 33002 ft | 491 kts | 157° |
| 2026-04-28 17:56 | -2.23739 | -70.72404 | 33000 ft | 491 kts | 157° |
| 2026-04-28 17:57 | -2.30010 | -70.69704 | 33003 ft | 491 kts | 157° |
| 2026-04-28 17:57 | -2.36299 | -70.67030 | 33005 ft | 492 kts | 158° |
| 2026-04-28 17:58 | -2.42657 | -70.64498 | 33001 ft | 492 kts | 159° |
| 2026-04-28 17:58 | -2.49044 | -70.61984 | 33006 ft | 493 kts | 159° |
| 2026-04-28 17:59 | -2.55388 | -70.59466 | 33000 ft | 494 kts | 158° |
| 2026-04-28 17:59 | -2.61808 | -70.56903 | 33002 ft | 493 kts | 158° |
| 2026-04-28 18:00 | -2.68181 | -70.54355 | 33001 ft | 493 kts | 158° |
| 2026-04-28 18:00 | -2.74509 | -70.51826 | 33001 ft | 493 kts | 158° |
| 2026-04-28 18:01 | -2.80877 | -70.49281 | 33001 ft | 493 kts | 158° |
| 2026-04-28 18:01 | -2.87252 | -70.46734 | 33001 ft | 493 kts | 158° |
| 2026-04-28 18:02 | -2.93616 | -70.44190 | 33002 ft | 493 kts | 158° |
| 2026-04-28 18:02 | -2.99978 | -70.41647 | 33001 ft | 493 kts | 158° |
| 2026-04-28 18:03 | -3.06338 | -70.39105 | 33002 ft | 492 kts | 158° |
| 2026-04-28 18:03 | -3.12709 | -70.36557 | 33002 ft | 493 kts | 158° |
| 2026-04-28 18:04 | -3.19071 | -70.34012 | 33002 ft | 493 kts | 158° |
| 2026-04-28 18:04 | -3.25469 | -70.31452 | 33014 ft | 499 kts | 158° |
| 2026-04-28 18:05 | -3.30850 | -70.29289 | 33010 ft | 504 kts | 158° |
| 2026-04-28 18:05 | -3.38470 | -70.26225 | 33004 ft | 506 kts | 158° |
| 2026-04-28 18:06 | -3.45002 | -70.23599 | 33000 ft | 506 kts | 158° |
| 2026-04-28 18:06 | -3.51537 | -70.20971 | 32999 ft | 505 kts | 158° |
| 2026-04-28 18:07 | -3.58048 | -70.18353 | 33000 ft | 503 kts | 158° |
| 2026-04-28 18:07 | -3.64539 | -70.15742 | 33000 ft | 502 kts | 158° |
| 2026-04-28 18:08 | -3.71007 | -70.13141 | 33001 ft | 501 kts | 158° |
| 2026-04-28 18:08 | -3.76374 | -70.10982 | 33000 ft | 500 kts | 158° |
| 2026-04-28 18:09 | -3.83923 | -70.07944 | 33002 ft | 500 kts | 158° |
| 2026-04-28 18:09 | -3.89288 | -70.05785 | 33001 ft | 500 kts | 158° |
| 2026-04-28 18:10 | -3.95753 | -70.03182 | 33003 ft | 501 kts | 158° |
| 2026-04-28 18:10 | -4.02221 | -70.00578 | 33002 ft | 501 kts | 158° |
| 2026-04-28 18:11 | -4.08696 | -69.97971 | 33000 ft | 502 kts | 158° |
| 2026-04-28 18:11 | -4.15178 | -69.95360 | 33001 ft | 502 kts | 158° |
| 2026-04-28 18:12 | -4.21674 | -69.92791 | 33003 ft | 502 kts | 160° |
| 2026-04-28 18:12 | -4.28275 | -69.90491 | 32999 ft | 502 kts | 161° |
| 2026-04-28 18:13 | -4.34892 | -69.88231 | 33002 ft | 502 kts | 161° |
| 2026-04-28 18:13 | -4.41487 | -69.85927 | 33003 ft | 502 kts | 161° |
| 2026-04-28 18:14 | -4.48079 | -69.83601 | 33000 ft | 502 kts | 161° |
| 2026-04-28 18:14 | -4.54666 | -69.81279 | 33000 ft | 502 kts | 161° |
| 2026-04-28 18:15 | -4.61249 | -69.78961 | 33001 ft | 501 kts | 161° |
| 2026-04-28 18:15 | -4.67778 | -69.76649 | 33001 ft | 501 kts | 161° |
| 2026-04-28 18:16 | -4.74357 | -69.74314 | 33002 ft | 501 kts | 161° |
| 2026-04-28 18:16 | -4.80929 | -69.71983 | 33002 ft | 501 kts | 161° |
| 2026-04-28 18:17 | -4.87510 | -69.69648 | 33000 ft | 501 kts | 161° |
| 2026-04-28 18:17 | -4.94090 | -69.67314 | 33003 ft | 501 kts | 161° |
| 2026-04-28 18:18 | -5.00661 | -69.64973 | 33001 ft | 502 kts | 161° |
| 2026-04-28 18:18 | -5.06129 | -69.63020 | 33002 ft | 502 kts | 160° |
| 2026-04-28 18:19 | -5.13816 | -69.60274 | 33001 ft | 502 kts | 161° |
| 2026-04-28 18:19 | -5.20387 | -69.57928 | 33000 ft | 502 kts | 161° |
| 2026-04-28 18:20 | -5.26964 | -69.55579 | 33002 ft | 502 kts | 161° |
| 2026-04-28 18:20 | -5.33542 | -69.53229 | 33001 ft | 502 kts | 161° |
| 2026-04-28 18:21 | -5.40119 | -69.50879 | 33001 ft | 502 kts | 161° |
| 2026-04-28 18:21 | -5.43403 | -69.49707 | 31761 ft | 500 kts | 159° |
| 2026-04-28 18:21 | -5.46677 | -69.48537 | 32028 ft | 497 kts | 159° |
| 2026-04-28 18:22 | -5.49922 | -69.47378 | 32317 ft | 494 kts | 159° |
| 2026-04-28 18:22 | -5.53162 | -69.46225 | 32470 ft | 495 kts | 159° |
| 2026-04-28 18:22 | -5.59720 | -69.43910 | 32316 ft | 505 kts | 160° |
| 2026-04-28 18:23 | -5.66410 | -69.41588 | 32304 ft | 510 kts | 160° |
| 2026-04-28 18:23 | -5.69756 | -69.40447 | 32527 ft | 507 kts | 160° |
| 2026-04-28 18:23 | -5.73049 | -69.39338 | 32779 ft | 504 kts | 160° |
| 2026-04-28 18:24 | -5.76370 | -69.38233 | 32955 ft | 503 kts | 161° |
| 2026-04-28 18:24 | -5.78617 | -69.37496 | 32993 ft | 504 kts | 161° |
| 2026-04-28 18:24 | -5.86442 | -69.35001 | 32854 ft | 512 kts | 162° |
| 2026-04-28 18:25 | -5.93289 | -69.32928 | 32872 ft | 513 kts | 163° |
| 2026-04-28 18:25 | -5.96710 | -69.31932 | 32995 ft | 511 kts | 163° |
| 2026-04-28 18:26 | -6.03540 | -69.30019 | 33268 ft | 508 kts | 164° |
| 2026-04-28 18:26 | -6.10388 | -69.28195 | 33262 ft | 511 kts | 165° |
| 2026-04-28 18:27 | -6.17310 | -69.26448 | 33139 ft | 515 kts | 166° |
| 2026-04-28 18:27 | -6.24286 | -69.24788 | 33069 ft | 515 kts | 166° |
| 2026-04-28 18:28 | -6.31278 | -69.23225 | 32993 ft | 514 kts | 167° |
| 2026-04-28 18:28 | -6.38266 | -69.21755 | 32920 ft | 512 kts | 168° |
| 2026-04-28 18:29 | -6.45254 | -69.20381 | 32823 ft | 511 kts | 168° |
| 2026-04-28 18:29 | -6.52256 | -69.19097 | 32707 ft | 511 kts | 169° |
| 2026-04-28 18:30 | -6.59266 | -69.17909 | 32553 ft | 511 kts | 169° |
| 2026-04-28 18:30 | -6.65962 | -69.15806 | 32804 ft | 502 kts | 152° |
| 2026-04-28 18:31 | -6.71674 | -69.11835 | 32900 ft | 500 kts | 135° |
| 2026-04-28 18:31 | -6.75937 | -69.06382 | 32918 ft | 498 kts | 121° |
| 2026-04-28 18:31 | -6.78030 | -69.03602 | 32913 ft | 501 kts | 134° |
| 2026-04-28 18:32 | -6.80730 | -69.01335 | 32927 ft | 504 kts | 146° |
| 2026-04-28 18:32 | -6.87071 | -68.98271 | 32932 ft | 509 kts | 159° |
| 2026-04-28 18:33 | -6.93827 | -68.96022 | 32922 ft | 513 kts | 161° |
| 2026-04-28 18:33 | -7.00602 | -68.93764 | 32915 ft | 513 kts | 160° |
| 2026-04-28 18:34 | -7.07310 | -68.91363 | 32916 ft | 511 kts | 159° |
| 2026-04-28 18:34 | -7.13998 | -68.88898 | 32924 ft | 513 kts | 159° |
| 2026-04-28 18:35 | -7.20689 | -68.86430 | 32921 ft | 518 kts | 160° |
| 2026-04-28 18:35 | -7.27478 | -68.83939 | 32922 ft | 521 kts | 160° |
| 2026-04-28 18:36 | -7.34299 | -68.81440 | 32922 ft | 522 kts | 160° |
| 2026-04-28 18:36 | -7.41135 | -68.78933 | 32915 ft | 523 kts | 160° |
| 2026-04-28 18:37 | -7.47958 | -68.76429 | 32910 ft | 521 kts | 159° |
| 2026-04-28 18:37 | -7.54764 | -68.73931 | 32913 ft | 520 kts | 159° |
| 2026-04-28 18:38 | -7.61545 | -68.71440 | 32915 ft | 518 kts | 159° |
| 2026-04-28 18:38 | -7.68323 | -68.68950 | 32916 ft | 517 kts | 160° |
| 2026-04-28 18:39 | -7.75091 | -68.66489 | 32917 ft | 517 kts | 160° |
| 2026-04-28 18:39 | -7.81871 | -68.64052 | 32910 ft | 517 kts | 160° |
| 2026-04-28 18:40 | -7.88654 | -68.61612 | 32917 ft | 518 kts | 160° |
| 2026-04-28 18:40 | -7.95437 | -68.59165 | 32913 ft | 518 kts | 160° |
| 2026-04-28 18:41 | -8.02185 | -68.56728 | 32916 ft | 519 kts | 160° |
| 2026-04-28 18:41 | -8.08991 | -68.54268 | 32915 ft | 520 kts | 160° |
| 2026-04-28 18:42 | -8.15798 | -68.51808 | 32914 ft | 520 kts | 160° |
| 2026-04-28 18:42 | -8.22616 | -68.49343 | 32912 ft | 521 kts | 160° |
| 2026-04-28 18:43 | -8.29449 | -68.46871 | 32919 ft | 521 kts | 160° |
| 2026-04-28 18:43 | -8.36284 | -68.44398 | 32918 ft | 522 kts | 160° |
| 2026-04-28 18:44 | -8.43117 | -68.41925 | 32913 ft | 522 kts | 160° |
| 2026-04-28 18:44 | -8.53375 | -68.38210 | 32917 ft | 522 kts | 160° |
| 2026-04-28 18:45 | -8.60205 | -68.35736 | 32914 ft | 522 kts | 160° |
| 2026-04-28 18:45 | -8.67039 | -68.33259 | 32912 ft | 522 kts | 160° |
| 2026-04-28 18:46 | -8.73871 | -68.30781 | 32914 ft | 522 kts | 160° |
| 2026-04-28 18:46 | -8.80703 | -68.28304 | 32913 ft | 521 kts | 160° |
| 2026-04-28 18:47 | -8.87529 | -68.25826 | 32913 ft | 521 kts | 160° |
| 2026-04-28 18:47 | -8.94357 | -68.23348 | 32913 ft | 521 kts | 160° |
| 2026-04-28 18:48 | -9.01175 | -68.20872 | 32910 ft | 520 kts | 160° |
| 2026-04-28 18:48 | -9.07987 | -68.18397 | 32913 ft | 520 kts | 160° |
| 2026-04-28 18:49 | -9.12496 | -68.16757 | 32906 ft | 520 kts | 160° |
| 2026-04-28 18:49 | -9.21559 | -68.13462 | 32912 ft | 520 kts | 160° |
| 2026-04-28 18:50 | -9.28375 | -68.11018 | 32909 ft | 520 kts | 161° |
| 2026-04-28 18:50 | -9.35219 | -68.08661 | 32913 ft | 519 kts | 161° |
| 2026-04-28 18:51 | -9.42067 | -68.06309 | 32908 ft | 520 kts | 161° |
| 2026-04-28 18:51 | -9.48914 | -68.03941 | 32918 ft | 520 kts | 161° |
| 2026-04-28 18:52 | -9.55753 | -68.01567 | 32919 ft | 520 kts | 161° |
| 2026-04-28 18:52 | -9.62603 | -67.99187 | 32936 ft | 520 kts | 161° |
| 2026-04-28 18:53 | -9.69455 | -67.96807 | 32944 ft | 521 kts | 161° |
| 2026-04-28 18:53 | -9.76314 | -67.94424 | 32956 ft | 521 kts | 161° |
| 2026-04-28 18:54 | -9.83181 | -67.92038 | 32969 ft | 522 kts | 161° |
| 2026-04-28 18:54 | -9.90055 | -67.89673 | 32969 ft | 522 kts | 162° |
| 2026-04-28 18:55 | -9.95831 | -67.87861 | 32964 ft | 523 kts | 163° |
| 2026-04-28 18:55 | -10.03993 | -67.85383 | 32949 ft | 524 kts | 163° |
| 2026-04-28 18:56 | -10.10969 | -67.83232 | 32932 ft | 525 kts | 163° |
| 2026-04-28 18:56 | -10.17957 | -67.81052 | 32921 ft | 526 kts | 163° |
| 2026-04-28 18:57 | -10.24956 | -67.78866 | 32919 ft | 526 kts | 163° |
| 2026-04-28 18:57 | -10.31945 | -67.76684 | 32915 ft | 525 kts | 163° |
| 2026-04-28 18:58 | -10.38926 | -67.74505 | 32917 ft | 524 kts | 163° |
| 2026-04-28 18:58 | -10.44711 | -67.72699 | 32915 ft | 523 kts | 163° |
| 2026-04-28 18:59 | -10.51667 | -67.70525 | 32920 ft | 522 kts | 163° |
| 2026-04-28 18:59 | -10.58599 | -67.68358 | 32920 ft | 521 kts | 163° |
| 2026-04-28 19:00 | -10.65532 | -67.66203 | 32919 ft | 520 kts | 163° |
| 2026-04-28 19:00 | -10.72455 | -67.64079 | 32923 ft | 519 kts | 163° |
| 2026-04-28 19:01 | -10.79372 | -67.61959 | 32927 ft | 518 kts | 163° |
| 2026-04-28 19:01 | -10.86275 | -67.59837 | 32927 ft | 518 kts | 163° |
| 2026-04-28 19:02 | -10.93159 | -67.57716 | 32927 ft | 517 kts | 163° |
| 2026-04-28 19:02 | -11.00003 | -67.55606 | 32929 ft | 517 kts | 163° |
| 2026-04-28 19:03 | -11.06882 | -67.53485 | 32929 ft | 517 kts | 163° |
| 2026-04-28 19:03 | -11.13771 | -67.51358 | 32913 ft | 517 kts | 163° |
| 2026-04-28 19:04 | -11.20667 | -67.49231 | 32903 ft | 518 kts | 163° |
| 2026-04-28 19:04 | -11.27568 | -67.47101 | 32903 ft | 518 kts | 163° |
| 2026-04-28 19:05 | -11.34475 | -67.44968 | 32902 ft | 519 kts | 163° |
| 2026-04-28 19:05 | -11.41386 | -67.42832 | 32903 ft | 520 kts | 163° |
| 2026-04-28 19:06 | -11.48312 | -67.40690 | 32902 ft | 520 kts | 163° |
| 2026-04-28 19:06 | -11.55239 | -67.38547 | 32906 ft | 521 kts | 163° |
| 2026-04-28 19:07 | -11.62176 | -67.36400 | 32901 ft | 522 kts | 163° |
| 2026-04-28 19:07 | -11.69124 | -67.34248 | 32901 ft | 522 kts | 163° |
| 2026-04-28 19:08 | -11.76065 | -67.32097 | 32905 ft | 521 kts | 163° |
| 2026-04-28 19:08 | -11.82960 | -67.29957 | 32894 ft | 521 kts | 163° |
| 2026-04-28 19:09 | -11.89892 | -67.27808 | 32899 ft | 521 kts | 163° |
| 2026-04-28 19:09 | -11.96823 | -67.25658 | 32895 ft | 520 kts | 163° |
| 2026-04-28 19:10 | -12.03793 | -67.23494 | 32899 ft | 520 kts | 163° |
| 2026-04-28 19:10 | -12.10676 | -67.21356 | 32895 ft | 520 kts | 163° |
| 2026-04-28 19:11 | -12.17602 | -67.19203 | 32900 ft | 521 kts | 163° |
| 2026-04-28 19:11 | -12.24533 | -67.17047 | 32897 ft | 521 kts | 163° |
| 2026-04-28 19:12 | -12.31474 | -67.14887 | 32899 ft | 521 kts | 163° |
| 2026-04-28 19:12 | -12.38416 | -67.12725 | 32895 ft | 522 kts | 163° |
| 2026-04-28 19:13 | -12.45372 | -67.10558 | 32899 ft | 522 kts | 163° |
| 2026-04-28 19:13 | -12.52329 | -67.08389 | 32896 ft | 523 kts | 163° |
| 2026-04-28 19:14 | -12.59290 | -67.06218 | 32891 ft | 523 kts | 163° |
| 2026-04-28 19:14 | -12.66253 | -67.04045 | 32889 ft | 523 kts | 163° |
| 2026-04-28 19:15 | -12.73224 | -67.01868 | 32908 ft | 523 kts | 164° |
| 2026-04-28 19:15 | -12.79011 | -67.00060 | 32910 ft | 523 kts | 164° |
| 2026-04-28 19:16 | -12.87152 | -66.97515 | 32907 ft | 523 kts | 164° |
| 2026-04-28 19:16 | -12.94113 | -66.95337 | 32907 ft | 523 kts | 164° |
| 2026-04-28 19:17 | -13.01030 | -66.93172 | 32908 ft | 523 kts | 164° |
| 2026-04-28 19:17 | -13.07993 | -66.90991 | 32907 ft | 523 kts | 164° |
| 2026-04-28 19:18 | -13.14957 | -66.88827 | 32904 ft | 523 kts | 164° |
| 2026-04-28 19:18 | -13.21927 | -66.86678 | 32899 ft | 523 kts | 165° |
| 2026-04-28 19:19 | -13.28904 | -66.84524 | 32904 ft | 523 kts | 165° |
| 2026-04-28 19:19 | -13.35873 | -66.82368 | 32903 ft | 523 kts | 165° |
| 2026-04-28 19:20 | -13.42837 | -66.80210 | 32902 ft | 523 kts | 165° |
| 2026-04-28 19:20 | -13.49806 | -66.78049 | 32906 ft | 523 kts | 165° |
| 2026-04-28 19:21 | -13.56731 | -66.75902 | 32901 ft | 523 kts | 165° |
| 2026-04-28 19:21 | -13.63746 | -66.73725 | 32903 ft | 524 kts | 165° |
| 2026-04-28 19:22 | -13.69544 | -66.71924 | 32905 ft | 524 kts | 165° |
| 2026-04-28 19:22 | -13.77665 | -66.69401 | 32910 ft | 525 kts | 165° |
| 2026-04-28 19:23 | -13.84664 | -66.67225 | 32899 ft | 526 kts | 165° |
| 2026-04-28 19:23 | -13.91675 | -66.65044 | 32902 ft | 526 kts | 165° |
| 2026-04-28 19:24 | -13.98689 | -66.62860 | 32905 ft | 527 kts | 165° |
| 2026-04-28 19:24 | -14.05708 | -66.60673 | 32903 ft | 527 kts | 165° |
| 2026-04-28 19:25 | -14.12741 | -66.58481 | 32904 ft | 528 kts | 165° |
| 2026-04-28 19:25 | -14.19772 | -66.56287 | 32904 ft | 528 kts | 165° |
| 2026-04-28 19:26 | -14.26814 | -66.54089 | 32903 ft | 529 kts | 165° |
| 2026-04-28 19:26 | -14.33859 | -66.51889 | 32900 ft | 529 kts | 165° |
| 2026-04-28 19:27 | -14.40900 | -66.49688 | 32900 ft | 529 kts | 165° |
| 2026-04-28 19:27 | -14.47943 | -66.47484 | 32900 ft | 529 kts | 165° |
| 2026-04-28 19:28 | -14.54988 | -66.45280 | 32900 ft | 529 kts | 165° |
| 2026-04-28 19:28 | -14.61993 | -66.43095 | 32898 ft | 529 kts | 165° |
| 2026-04-28 19:29 | -14.67892 | -66.41258 | 32884 ft | 529 kts | 165° |
| 2026-04-28 19:29 | -14.76125 | -66.38691 | 32892 ft | 529 kts | 165° |
| 2026-04-28 19:30 | -14.83159 | -66.36495 | 32901 ft | 529 kts | 165° |
| 2026-04-28 19:30 | -14.90208 | -66.34292 | 32902 ft | 529 kts | 165° |
| 2026-04-28 19:31 | -14.97204 | -66.32104 | 32905 ft | 528 kts | 165° |
| 2026-04-28 19:31 | -15.04238 | -66.29904 | 32888 ft | 528 kts | 165° |
| 2026-04-28 19:32 | -15.11276 | -66.27700 | 32894 ft | 528 kts | 165° |
| 2026-04-28 19:32 | -15.18313 | -66.25495 | 32897 ft | 528 kts | 165° |
| 2026-04-28 19:33 | -15.25344 | -66.23290 | 32922 ft | 528 kts | 165° |
| 2026-04-28 19:33 | -15.32376 | -66.21084 | 32909 ft | 528 kts | 165° |
| 2026-04-28 19:34 | -15.39412 | -66.18874 | 32917 ft | 528 kts | 165° |
| 2026-04-28 19:34 | -15.46442 | -66.16669 | 32916 ft | 528 kts | 166° |
| 2026-04-28 19:35 | -15.53486 | -66.14491 | 32915 ft | 528 kts | 166° |
| 2026-04-28 19:35 | -15.60536 | -66.12320 | 32921 ft | 528 kts | 166° |
| 2026-04-28 19:36 | -15.67577 | -66.10145 | 32927 ft | 528 kts | 166° |
| 2026-04-28 19:36 | -15.74620 | -66.07964 | 32929 ft | 528 kts | 166° |
| 2026-04-28 19:37 | -15.80468 | -66.06151 | 32936 ft | 528 kts | 166° |
| 2026-04-28 19:37 | -15.88704 | -66.03597 | 32934 ft | 528 kts | 166° |
| 2026-04-28 19:38 | -15.95742 | -66.01413 | 32941 ft | 528 kts | 166° |
| 2026-04-28 19:38 | -16.02736 | -65.99241 | 32947 ft | 528 kts | 166° |
| 2026-04-28 19:39 | -16.09774 | -65.97053 | 32950 ft | 528 kts | 166° |
| 2026-04-28 19:39 | -16.16810 | -65.94865 | 32960 ft | 528 kts | 166° |
| 2026-04-28 19:40 | -16.23843 | -65.92676 | 32966 ft | 528 kts | 166° |
| 2026-04-28 19:40 | -16.30878 | -65.90484 | 32970 ft | 528 kts | 166° |
| 2026-04-28 19:41 | -16.37907 | -65.88293 | 32985 ft | 528 kts | 166° |
| 2026-04-28 19:41 | -16.44943 | -65.86098 | 32983 ft | 528 kts | 166° |
| 2026-04-28 19:42 | -16.51983 | -65.83900 | 32993 ft | 528 kts | 166° |
| 2026-04-28 19:42 | -16.57878 | -65.82058 | 32998 ft | 528 kts | 166° |
| 2026-04-28 19:43 | -16.66077 | -65.79495 | 33180 ft | 530 kts | 166° |
| 2026-04-28 19:43 | -16.69607 | -65.78390 | 33464 ft | 529 kts | 166° |
| 2026-04-28 19:43 | -16.73125 | -65.77288 | 33782 ft | 528 kts | 166° |
| 2026-04-28 19:44 | -16.76649 | -65.76184 | 33985 ft | 528 kts | 166° |
| 2026-04-28 19:44 | -16.80161 | -65.75069 | 34147 ft | 530 kts | 164° |
| 2026-04-28 19:44 | -16.83619 | -65.73712 | 34300 ft | 532 kts | 159° |
| 2026-04-28 19:44 | -16.86967 | -65.72027 | 34472 ft | 535 kts | 153° |
| 2026-04-28 19:45 | -16.90177 | -65.70071 | 34589 ft | 535 kts | 152° |
| 2026-04-28 19:45 | -16.93376 | -65.68065 | 34766 ft | 536 kts | 151° |
| 2026-04-28 19:45 | -16.96572 | -65.66067 | 34886 ft | 536 kts | 152° |
| 2026-04-28 19:45 | -16.99792 | -65.64080 | 34931 ft | 537 kts | 152° |
| 2026-04-28 19:46 | -17.06247 | -65.60156 | 34976 ft | 536 kts | 152° |
| 2026-04-28 19:46 | -17.12652 | -65.56268 | 34988 ft | 534 kts | 152° |
| 2026-04-28 19:47 | -17.19082 | -65.52376 | 34998 ft | 534 kts | 152° |
| 2026-04-28 19:47 | -17.25540 | -65.48460 | 34989 ft | 537 kts | 152° |
| 2026-04-28 19:48 | -17.31961 | -65.44567 | 34995 ft | 536 kts | 152° |
| 2026-04-28 19:48 | -17.38417 | -65.40645 | 34998 ft | 536 kts | 152° |
| 2026-04-28 19:49 | -17.44863 | -65.36725 | 34988 ft | 535 kts | 152° |
| 2026-04-28 19:49 | -17.51312 | -65.32809 | 34980 ft | 535 kts | 152° |
| 2026-04-28 19:50 | -17.59875 | -65.27623 | 34950 ft | 534 kts | 153° |
| 2026-04-28 19:51 | -17.66297 | -65.23722 | 34956 ft | 533 kts | 153° |
| 2026-04-28 19:51 | -17.72716 | -65.19837 | 34912 ft | 533 kts | 153° |
| 2026-04-28 19:52 | -17.79146 | -65.15954 | 34911 ft | 533 kts | 153° |
| 2026-04-28 19:52 | -17.85583 | -65.12061 | 34897 ft | 535 kts | 153° |
| 2026-04-28 19:53 | -17.92036 | -65.08152 | 34887 ft | 536 kts | 153° |
| 2026-04-28 19:53 | -17.98497 | -65.04231 | 34851 ft | 536 kts | 153° |
| 2026-04-28 19:54 | -18.04960 | -65.00307 | 34844 ft | 537 kts | 153° |
| 2026-04-28 19:54 | -18.11427 | -64.96380 | 34842 ft | 537 kts | 153° |
| 2026-04-28 19:55 | -18.17898 | -64.92446 | 34835 ft | 537 kts | 153° |
| 2026-04-28 19:55 | -18.24354 | -64.88512 | 34833 ft | 536 kts | 153° |
| 2026-04-28 19:56 | -18.30810 | -64.84581 | 34827 ft | 537 kts | 153° |
| 2026-04-28 19:56 | -18.37266 | -64.80647 | 34831 ft | 536 kts | 153° |
| 2026-04-28 19:57 | -18.43724 | -64.76706 | 34826 ft | 537 kts | 153° |
| 2026-04-28 19:57 | -18.50183 | -64.72761 | 34825 ft | 536 kts | 153° |
| 2026-04-28 19:58 | -18.56635 | -64.68815 | 34839 ft | 536 kts | 153° |
| 2026-04-28 19:58 | -18.63094 | -64.64881 | 34844 ft | 536 kts | 154° |
| 2026-04-28 19:59 | -18.69535 | -64.61008 | 34848 ft | 537 kts | 154° |
| 2026-04-28 19:59 | -18.76028 | -64.57096 | 34842 ft | 537 kts | 154° |
| 2026-04-28 20:00 | -18.82507 | -64.53161 | 34852 ft | 537 kts | 153° |
| 2026-04-28 20:00 | -18.88959 | -64.49185 | 34876 ft | 537 kts | 153° |
| 2026-04-28 20:01 | -18.95431 | -64.45225 | 34882 ft | 538 kts | 154° |
| 2026-04-28 20:01 | -19.01930 | -64.41307 | 34893 ft | 538 kts | 154° |
| 2026-04-28 20:02 | -19.08437 | -64.37387 | 34894 ft | 538 kts | 154° |
| 2026-04-28 20:02 | -19.14921 | -64.33465 | 34917 ft | 537 kts | 154° |
| 2026-04-28 20:03 | -19.21405 | -64.29535 | 34921 ft | 537 kts | 154° |
| 2026-04-28 20:03 | -19.27893 | -64.25598 | 34935 ft | 538 kts | 154° |
| 2026-04-28 20:04 | -19.34394 | -64.21651 | 34941 ft | 540 kts | 154° |
| 2026-04-28 20:04 | -19.40921 | -64.17686 | 34949 ft | 541 kts | 154° |
| 2026-04-28 20:05 | -19.47463 | -64.13706 | 34946 ft | 543 kts | 154° |
| 2026-04-28 20:05 | -19.54027 | -64.09710 | 34935 ft | 544 kts | 154° |
| 2026-04-28 20:06 | -19.60584 | -64.05713 | 34942 ft | 543 kts | 154° |
| 2026-04-28 20:06 | -19.67124 | -64.01723 | 34928 ft | 542 kts | 154° |
| 2026-04-28 20:07 | -19.73651 | -63.97739 | 34924 ft | 540 kts | 154° |
| 2026-04-28 20:07 | -19.80170 | -63.93787 | 34934 ft | 540 kts | 154° |
| 2026-04-28 20:08 | -19.86705 | -63.89829 | 34937 ft | 541 kts | 154° |
| 2026-04-28 20:08 | -19.93240 | -63.85864 | 34957 ft | 541 kts | 155° |
| 2026-04-28 20:09 | -19.99797 | -63.81905 | 34973 ft | 543 kts | 155° |
| 2026-04-28 20:09 | -20.06364 | -63.77937 | 34993 ft | 543 kts | 155° |
| 2026-04-28 20:10 | -20.12904 | -63.73994 | 35007 ft | 544 kts | 155° |
| 2026-04-28 20:10 | -20.19504 | -63.70021 | 34989 ft | 546 kts | 156° |
| 2026-04-28 20:11 | -20.26107 | -63.66039 | 34983 ft | 546 kts | 155° |
| 2026-04-28 20:11 | -20.32738 | -63.62034 | 34958 ft | 549 kts | 155° |
| 2026-04-28 20:12 | -20.39379 | -63.58016 | 34942 ft | 549 kts | 155° |
| 2026-04-28 20:12 | -20.46024 | -63.53993 | 34948 ft | 549 kts | 155° |
| 2026-04-28 20:13 | -20.52658 | -63.49970 | 34959 ft | 548 kts | 155° |
| 2026-04-28 20:13 | -20.59305 | -63.45938 | 34955 ft | 548 kts | 156° |
| 2026-04-28 20:14 | -20.65905 | -63.41930 | 34961 ft | 547 kts | 156° |
| 2026-04-28 20:14 | -20.72510 | -63.37915 | 34973 ft | 546 kts | 156° |
| 2026-04-28 20:15 | -20.79131 | -63.33886 | 34975 ft | 545 kts | 156° |
| 2026-04-28 20:15 | -20.85687 | -63.29894 | 34973 ft | 546 kts | 156° |
| 2026-04-28 20:16 | -20.92287 | -63.25869 | 34978 ft | 546 kts | 156° |
| 2026-04-28 20:16 | -20.98886 | -63.21842 | 34982 ft | 547 kts | 156° |
| 2026-04-28 20:17 | -21.05496 | -63.17803 | 34986 ft | 547 kts | 156° |
| 2026-04-28 20:17 | -21.12107 | -63.13759 | 34997 ft | 548 kts | 156° |
| 2026-04-28 20:18 | -21.18726 | -63.09706 | 34986 ft | 548 kts | 156° |
| 2026-04-28 20:18 | -21.25351 | -63.05660 | 34983 ft | 546 kts | 158° |
| 2026-04-28 20:19 | -21.32334 | -63.02845 | 34982 ft | 529 kts | 174° |
| 2026-04-28 20:19 | -21.39515 | -63.01840 | 34984 ft | 514 kts | 186° |
| 2026-04-28 20:20 | -21.46664 | -63.01693 | 34987 ft | 514 kts | 187° |
| 2026-04-28 20:20 | -21.53820 | -63.01531 | 34989 ft | 515 kts | 186° |
| 2026-04-28 20:21 | -21.60987 | -63.01308 | 34985 ft | 515 kts | 186° |
| 2026-04-28 20:21 | -21.68153 | -63.01064 | 34987 ft | 515 kts | 186° |
| 2026-04-28 20:22 | -21.75313 | -63.00822 | 34984 ft | 515 kts | 186° |
| 2026-04-28 20:22 | -21.82474 | -63.00584 | 34985 ft | 515 kts | 186° |
| 2026-04-28 20:23 | -21.89637 | -63.00346 | 34990 ft | 515 kts | 186° |
| 2026-04-28 20:23 | -21.96799 | -63.00107 | 34991 ft | 515 kts | 186° |
| 2026-04-28 20:24 | -22.03993 | -62.99442 | 34993 ft | 524 kts | 179° |
| 2026-04-28 20:24 | -22.11201 | -62.98172 | 34998 ft | 526 kts | 178° |
| 2026-04-28 20:25 | -22.18420 | -62.96856 | 34993 ft | 526 kts | 178° |
| 2026-04-28 20:25 | -22.25642 | -62.95580 | 35001 ft | 526 kts | 179° |
| 2026-04-28 20:26 | -22.32872 | -62.94331 | 34997 ft | 526 kts | 179° |
| 2026-04-28 20:26 | -22.40109 | -62.93086 | 34996 ft | 527 kts | 179° |
| 2026-04-28 20:27 | -22.47358 | -62.91835 | 35000 ft | 527 kts | 179° |
| 2026-04-28 20:27 | -22.54603 | -62.90581 | 35001 ft | 528 kts | 179° |
| 2026-04-28 20:28 | -22.61862 | -62.89323 | 35005 ft | 528 kts | 179° |
| 2026-04-28 20:28 | -22.69077 | -62.88070 | 35001 ft | 529 kts | 179° |
| 2026-04-28 20:29 | -22.76352 | -62.86807 | 35002 ft | 529 kts | 179° |
| 2026-04-28 20:29 | -22.83624 | -62.85542 | 34996 ft | 529 kts | 179° |
| 2026-04-28 20:30 | -22.90895 | -62.84276 | 35004 ft | 530 kts | 179° |
| 2026-04-28 20:30 | -22.98174 | -62.83008 | 35005 ft | 530 kts | 179° |
| 2026-04-28 20:31 | -23.05466 | -62.81736 | 35008 ft | 531 kts | 179° |
| 2026-04-28 20:31 | -23.12772 | -62.80460 | 35008 ft | 532 kts | 179° |
| 2026-04-28 20:32 | -23.20087 | -62.79181 | 35013 ft | 533 kts | 179° |
| 2026-04-28 20:32 | -23.27410 | -62.77899 | 35012 ft | 534 kts | 179° |
| 2026-04-28 20:33 | -23.34753 | -62.76613 | 35014 ft | 535 kts | 179° |
| 2026-04-28 20:33 | -23.42110 | -62.75322 | 35015 ft | 536 kts | 179° |
| 2026-04-28 20:34 | -23.49466 | -62.74029 | 35011 ft | 536 kts | 179° |
| 2026-04-28 20:34 | -23.56838 | -62.72733 | 35016 ft | 537 kts | 179° |
| 2026-04-28 20:35 | -23.64170 | -62.71442 | 35019 ft | 537 kts | 179° |
| 2026-04-28 20:35 | -23.71594 | -62.70133 | 35022 ft | 537 kts | 180° |
| 2026-04-28 20:36 | -23.78938 | -62.68838 | 35020 ft | 538 kts | 180° |
| 2026-04-28 20:36 | -23.86324 | -62.67533 | 35021 ft | 538 kts | 180° |
| 2026-04-28 20:37 | -23.93714 | -62.66226 | 35020 ft | 538 kts | 180° |
| 2026-04-28 20:37 | -24.01107 | -62.64917 | 35022 ft | 538 kts | 180° |
| 2026-04-28 20:38 | -24.07300 | -62.63820 | 35033 ft | 538 kts | 180° |
| 2026-04-28 20:38 | -24.14649 | -62.62516 | 35023 ft | 539 kts | 180° |
| 2026-04-28 20:39 | -24.22052 | -62.61201 | 35035 ft | 539 kts | 180° |
| 2026-04-28 20:39 | -24.29457 | -62.59884 | 35036 ft | 539 kts | 180° |
| 2026-04-28 20:40 | -24.36862 | -62.58565 | 35033 ft | 539 kts | 180° |
| 2026-04-28 20:40 | -24.44277 | -62.57243 | 35036 ft | 539 kts | 180° |
| 2026-04-28 20:41 | -24.51682 | -62.55921 | 35043 ft | 539 kts | 181° |
| 2026-04-28 20:41 | -24.59093 | -62.54596 | 35044 ft | 539 kts | 181° |
| 2026-04-28 20:42 | -24.66500 | -62.53271 | 35045 ft | 540 kts | 181° |
| 2026-04-28 20:42 | -24.73918 | -62.51944 | 35035 ft | 540 kts | 181° |
| 2026-04-28 20:43 | -24.81325 | -62.50628 | 35043 ft | 539 kts | 181° |
| 2026-04-28 20:43 | -24.88738 | -62.49312 | 35043 ft | 540 kts | 181° |
| 2026-04-28 20:44 | -24.96151 | -62.47992 | 35048 ft | 540 kts | 181° |
| 2026-04-28 20:44 | -25.03565 | -62.46669 | 35053 ft | 540 kts | 181° |
| 2026-04-28 20:45 | -25.10988 | -62.45343 | 35058 ft | 540 kts | 181° |
| 2026-04-28 20:45 | -25.18412 | -62.44015 | 35053 ft | 541 kts | 181° |
| 2026-04-28 20:46 | -25.25840 | -62.42685 | 35058 ft | 541 kts | 182° |
| 2026-04-28 20:46 | -25.33266 | -62.41351 | 35061 ft | 541 kts | 182° |
| 2026-04-28 20:47 | -25.40700 | -62.40005 | 35057 ft | 541 kts | 182° |
| 2026-04-28 20:47 | -25.48121 | -62.38657 | 35060 ft | 541 kts | 182° |
| 2026-04-28 20:48 | -25.55556 | -62.37305 | 35058 ft | 541 kts | 182° |
| 2026-04-28 20:48 | -25.62970 | -62.35957 | 35062 ft | 540 kts | 182° |
| 2026-04-28 20:49 | -25.70387 | -62.34607 | 35062 ft | 540 kts | 182° |
| 2026-04-28 20:49 | -25.77754 | -62.33264 | 35049 ft | 540 kts | 182° |
| 2026-04-28 20:50 | -25.85212 | -62.31903 | 35057 ft | 539 kts | 182° |
| 2026-04-28 20:50 | -25.92616 | -62.30550 | 35057 ft | 539 kts | 182° |
| 2026-04-28 20:51 | -25.99965 | -62.29206 | 35063 ft | 539 kts | 182° |
| 2026-04-28 20:51 | -26.07361 | -62.27851 | 35059 ft | 539 kts | 181° |
| 2026-04-28 20:52 | -26.14745 | -62.26496 | 35059 ft | 538 kts | 181° |
| 2026-04-28 20:52 | -26.22137 | -62.25138 | 35057 ft | 538 kts | 181° |
| 2026-04-28 20:53 | -26.33221 | -62.23099 | 35056 ft | 538 kts | 181° |
| 2026-04-28 20:53 | -26.40592 | -62.21741 | 35059 ft | 537 kts | 181° |
| 2026-04-28 20:54 | -26.47970 | -62.20380 | 35059 ft | 537 kts | 181° |
| 2026-04-28 20:54 | -26.55333 | -62.19019 | 35062 ft | 536 kts | 181° |
| 2026-04-28 20:55 | -26.62684 | -62.17659 | 35062 ft | 535 kts | 180° |
| 2026-04-28 20:55 | -26.70020 | -62.16300 | 35064 ft | 534 kts | 180° |
| 2026-04-28 20:56 | -26.77340 | -62.14942 | 35061 ft | 533 kts | 180° |
| 2026-04-28 20:56 | -26.84646 | -62.13585 | 35060 ft | 532 kts | 180° |
| 2026-04-28 20:57 | -26.91935 | -62.12230 | 35055 ft | 531 kts | 180° |
| 2026-04-28 20:57 | -26.99213 | -62.10875 | 35056 ft | 530 kts | 180° |
| 2026-04-28 20:58 | -27.06476 | -62.09521 | 35052 ft | 529 kts | 180° |
| 2026-04-28 20:58 | -27.13681 | -62.08176 | 35057 ft | 528 kts | 179° |
| 2026-04-28 20:59 | -27.20925 | -62.06822 | 35057 ft | 527 kts | 179° |
| 2026-04-28 20:59 | -27.28153 | -62.05470 | 35059 ft | 527 kts | 179° |
| 2026-04-28 21:00 | -27.35406 | -62.04111 | 35062 ft | 528 kts | 179° |
| 2026-04-28 21:00 | -27.42692 | -62.02744 | 35046 ft | 528 kts | 179° |
| 2026-04-28 21:01 | -27.49892 | -62.01391 | 35053 ft | 528 kts | 179° |
| 2026-04-28 21:01 | -27.57137 | -62.00028 | 35059 ft | 528 kts | 179° |
| 2026-04-28 21:02 | -27.64383 | -61.98663 | 35059 ft | 528 kts | 179° |
| 2026-04-28 21:02 | -27.71623 | -61.97297 | 35056 ft | 528 kts | 179° |
| 2026-04-28 21:03 | -27.78867 | -61.95929 | 35051 ft | 528 kts | 179° |
| 2026-04-28 21:03 | -27.86112 | -61.94558 | 35050 ft | 528 kts | 178° |
| 2026-04-28 21:04 | -27.93357 | -61.93186 | 35050 ft | 528 kts | 178° |
| 2026-04-28 21:04 | -28.00601 | -61.91812 | 35054 ft | 528 kts | 178° |
| 2026-04-28 21:05 | -28.07841 | -61.90436 | 35052 ft | 528 kts | 178° |
| 2026-04-28 21:05 | -28.15093 | -61.89057 | 35043 ft | 528 kts | 178° |
| 2026-04-28 21:06 | -28.22332 | -61.87678 | 35048 ft | 527 kts | 178° |
| 2026-04-28 21:06 | -28.29562 | -61.86299 | 35048 ft | 527 kts | 178° |
| 2026-04-28 21:07 | -28.36797 | -61.84917 | 35044 ft | 527 kts | 178° |
| 2026-04-28 21:07 | -28.43980 | -61.83543 | 35043 ft | 527 kts | 177° |
| 2026-04-28 21:08 | -28.51208 | -61.82181 | 35043 ft | 525 kts | 178° |
| 2026-04-28 21:08 | -28.58432 | -61.81084 | 35044 ft | 523 kts | 180° |
| 2026-04-28 21:09 | -28.65660 | -61.80072 | 35043 ft | 523 kts | 180° |
| 2026-04-28 21:09 | -28.72872 | -61.79023 | 35043 ft | 522 kts | 179° |
| 2026-04-28 21:10 | -28.80078 | -61.77943 | 35042 ft | 522 kts | 179° |
| 2026-04-28 21:10 | -28.87267 | -61.76859 | 35046 ft | 521 kts | 179° |
| 2026-04-28 21:11 | -28.94448 | -61.75777 | 35043 ft | 519 kts | 179° |
| 2026-04-28 21:11 | -29.01602 | -61.74699 | 35047 ft | 518 kts | 179° |
| 2026-04-28 21:12 | -29.08736 | -61.73624 | 35044 ft | 516 kts | 178° |
| 2026-04-28 21:12 | -29.15848 | -61.72550 | 35043 ft | 515 kts | 178° |
| 2026-04-28 21:13 | -29.22946 | -61.71477 | 35045 ft | 514 kts | 178° |
| 2026-04-28 21:13 | -29.30025 | -61.70406 | 35044 ft | 512 kts | 178° |
| 2026-04-28 21:14 | -29.37089 | -61.69337 | 35045 ft | 511 kts | 178° |
| 2026-04-28 21:14 | -29.44140 | -61.68274 | 35051 ft | 511 kts | 178° |
| 2026-04-28 21:15 | -29.51183 | -61.67212 | 35050 ft | 510 kts | 178° |
| 2026-04-28 21:15 | -29.58213 | -61.66149 | 35054 ft | 509 kts | 178° |
| 2026-04-28 21:16 | -29.65241 | -61.65085 | 35048 ft | 509 kts | 177° |
| 2026-04-28 21:16 | -29.72254 | -61.64020 | 35054 ft | 508 kts | 177° |
| 2026-04-28 21:17 | -29.79253 | -61.62957 | 35053 ft | 507 kts | 177° |
| 2026-04-28 21:17 | -29.86200 | -61.61901 | 35054 ft | 506 kts | 177° |
| 2026-04-28 21:18 | -29.93172 | -61.60838 | 35053 ft | 505 kts | 177° |
| 2026-04-28 21:18 | -30.00120 | -61.59778 | 35052 ft | 503 kts | 177° |
| 2026-04-28 21:19 | -30.07049 | -61.58719 | 35051 ft | 501 kts | 176° |
| 2026-04-28 21:19 | -30.13938 | -61.57665 | 35052 ft | 498 kts | 176° |
| 2026-04-28 21:20 | -30.20800 | -61.56614 | 35053 ft | 496 kts | 176° |
| 2026-04-28 21:20 | -30.27634 | -61.55566 | 35050 ft | 494 kts | 176° |
| 2026-04-28 21:21 | -30.34442 | -61.54520 | 35044 ft | 493 kts | 176° |
| 2026-04-28 21:21 | -30.41227 | -61.53476 | 35037 ft | 491 kts | 176° |
| 2026-04-28 21:22 | -30.47987 | -61.52435 | 35035 ft | 490 kts | 175° |
| 2026-04-28 21:22 | -30.53641 | -61.51562 | 35047 ft | 489 kts | 175° |
| 2026-04-28 21:23 | -30.61459 | -61.50332 | 35046 ft | 487 kts | 175° |
| 2026-04-28 21:23 | -30.68166 | -61.49273 | 35032 ft | 486 kts | 175° |
| 2026-04-28 21:24 | -30.74853 | -61.48225 | 35028 ft | 484 kts | 175° |
| 2026-04-28 21:24 | -30.81521 | -61.47189 | 35033 ft | 482 kts | 175° |
| 2026-04-28 21:25 | -30.87038 | -61.46329 | 35031 ft | 480 kts | 174° |
| 2026-04-28 21:25 | -30.93696 | -61.45289 | 35032 ft | 478 kts | 174° |
| 2026-04-28 21:26 | -31.00227 | -61.44267 | 35027 ft | 476 kts | 174° |
| 2026-04-28 21:26 | -31.06779 | -61.43240 | 35027 ft | 474 kts | 174° |
| 2026-04-28 21:27 | -31.13298 | -61.42217 | 35022 ft | 472 kts | 174° |
| 2026-04-28 21:27 | -31.19804 | -61.41195 | 35019 ft | 471 kts | 174° |
| 2026-04-28 21:28 | -31.26292 | -61.40174 | 35022 ft | 469 kts | 174° |
| 2026-04-28 21:28 | -31.32714 | -61.38869 | 35023 ft | 469 kts | 167° |
| 2026-04-28 21:29 | -31.38939 | -61.36565 | 35024 ft | 469 kts | 163° |
| 2026-04-28 21:29 | -31.45128 | -61.34164 | 35017 ft | 467 kts | 163° |
| 2026-04-28 21:30 | -31.51290 | -61.31797 | 35010 ft | 466 kts | 164° |
| 2026-04-28 21:30 | -31.57441 | -61.29455 | 35013 ft | 464 kts | 164° |
| 2026-04-28 21:31 | -31.63580 | -61.27122 | 35010 ft | 463 kts | 164° |
| 2026-04-28 21:31 | -31.69712 | -61.24788 | 35009 ft | 462 kts | 164° |
| 2026-04-28 21:32 | -31.75818 | -61.22460 | 35009 ft | 461 kts | 163° |
| 2026-04-28 21:32 | -31.81881 | -61.20144 | 35006 ft | 460 kts | 163° |
| 2026-04-28 21:33 | -31.87969 | -61.17815 | 35005 ft | 459 kts | 163° |
| 2026-04-28 21:33 | -31.94039 | -61.15491 | 35001 ft | 459 kts | 163° |
| 2026-04-28 21:34 | -32.00099 | -61.13166 | 34997 ft | 458 kts | 163° |
| 2026-04-28 21:34 | -32.06154 | -61.10841 | 34990 ft | 457 kts | 163° |
| 2026-04-28 21:35 | -32.12185 | -61.08521 | 34993 ft | 455 kts | 163° |
| 2026-04-28 21:35 | -32.18203 | -61.06203 | 34988 ft | 454 kts | 164° |
| 2026-04-28 21:36 | -32.24194 | -61.03893 | 34986 ft | 453 kts | 164° |
| 2026-04-28 21:36 | -32.30180 | -61.01581 | 34989 ft | 452 kts | 163° |
| 2026-04-28 21:37 | -32.36149 | -60.99272 | 34986 ft | 451 kts | 163° |
| 2026-04-28 21:37 | -32.42109 | -60.96964 | 34980 ft | 450 kts | 163° |
| 2026-04-28 21:38 | -32.48055 | -60.94658 | 34981 ft | 449 kts | 163° |
| 2026-04-28 21:38 | -32.53989 | -60.92354 | 34978 ft | 449 kts | 163° |
| 2026-04-28 21:39 | -32.59924 | -60.90045 | 34976 ft | 448 kts | 163° |
| 2026-04-28 21:39 | -32.65779 | -60.87765 | 34969 ft | 447 kts | 163° |
| 2026-04-28 21:40 | -32.71689 | -60.85460 | 34967 ft | 447 kts | 163° |
| 2026-04-28 21:40 | -32.77588 | -60.83156 | 34968 ft | 446 kts | 163° |
| 2026-04-28 21:41 | -32.83486 | -60.80849 | 34968 ft | 446 kts | 163° |
| 2026-04-28 21:41 | -32.89355 | -60.78461 | 34967 ft | 446 kts | 160° |
| 2026-04-28 21:42 | -32.94923 | -60.75146 | 34971 ft | 449 kts | 153° |
| 2026-04-28 21:42 | -33.00311 | -60.71392 | 34970 ft | 449 kts | 153° |
| 2026-04-28 21:43 | -33.05703 | -60.67638 | 34966 ft | 449 kts | 153° |
| 2026-04-28 21:43 | -33.11097 | -60.63902 | 34965 ft | 448 kts | 153° |
| 2026-04-28 21:44 | -33.16483 | -60.60176 | 34957 ft | 448 kts | 153° |
| 2026-04-28 21:44 | -33.21875 | -60.56441 | 34955 ft | 447 kts | 153° |
| 2026-04-28 21:45 | -33.27255 | -60.52709 | 34957 ft | 447 kts | 153° |
| 2026-04-28 21:45 | -33.32632 | -60.48972 | 34957 ft | 447 kts | 153° |
| 2026-04-28 21:46 | -33.38019 | -60.45224 | 34960 ft | 447 kts | 153° |
| 2026-04-28 21:46 | -33.43386 | -60.41484 | 34953 ft | 447 kts | 153° |
| 2026-04-28 21:47 | -33.48760 | -60.37733 | 34954 ft | 447 kts | 153° |
| 2026-04-28 21:47 | -33.54099 | -60.34002 | 34956 ft | 446 kts | 153° |
| 2026-04-28 21:48 | -33.59460 | -60.30249 | 34952 ft | 446 kts | 153° |
| 2026-04-28 21:48 | -33.64821 | -60.26491 | 34940 ft | 446 kts | 153° |
| 2026-04-28 21:49 | -33.70184 | -60.22726 | 34939 ft | 446 kts | 153° |
| 2026-04-28 21:49 | -33.75537 | -60.18962 | 34942 ft | 446 kts | 153° |
| 2026-04-28 21:50 | -33.80832 | -60.15073 | 34938 ft | 449 kts | 147° |
| 2026-04-28 21:50 | -33.85491 | -60.09912 | 34948 ft | 456 kts | 137° |
| 2026-04-28 21:51 | -33.89311 | -60.03768 | 34950 ft | 463 kts | 129° |
| 2026-04-28 21:51 | -33.93207 | -59.97780 | 34589 ft | 443 kts | 139° |
| 2026-04-28 21:52 | -33.95300 | -59.95090 | 34018 ft | 440 kts | 139° |
| 2026-04-28 21:52 | -33.97406 | -59.92385 | 32929 ft | 446 kts | 138° |
| 2026-04-28 21:52 | -33.99520 | -59.89657 | 31715 ft | 455 kts | 137° |
| 2026-04-28 21:52 | -34.01679 | -59.86854 | 30936 ft | 455 kts | 137° |
| 2026-04-28 21:53 | -34.03811 | -59.84065 | 30455 ft | 449 kts | 137° |
| 2026-04-28 21:53 | -34.05907 | -59.81313 | 30036 ft | 443 kts | 137° |
| 2026-04-28 21:53 | -34.07977 | -59.78591 | 29454 ft | 438 kts | 137° |
| 2026-04-28 21:53 | -34.10033 | -59.75888 | 28837 ft | 435 kts | 137° |
| 2026-04-28 21:54 | -34.12075 | -59.73204 | 28185 ft | 433 kts | 137° |
| 2026-04-28 21:54 | -34.14103 | -59.70536 | 27569 ft | 430 kts | 137° |
| 2026-04-28 21:54 | -34.16122 | -59.67879 | 26983 ft | 427 kts | 137° |
| 2026-04-28 21:54 | -34.18128 | -59.65238 | 26408 ft | 425 kts | 136° |
| 2026-04-28 21:55 | -34.20119 | -59.62613 | 25827 ft | 423 kts | 136° |
| 2026-04-28 21:55 | -34.22104 | -59.59994 | 25276 ft | 421 kts | 136° |
| 2026-04-28 21:55 | -34.24076 | -59.57390 | 24734 ft | 419 kts | 136° |
| 2026-04-28 21:55 | -34.26041 | -59.54794 | 24188 ft | 418 kts | 136° |
| 2026-04-28 21:56 | -34.27998 | -59.52206 | 23688 ft | 416 kts | 136° |
| 2026-04-28 21:56 | -34.29933 | -59.49644 | 23044 ft | 408 kts | 136° |
| 2026-04-28 21:56 | -34.31836 | -59.47120 | 22066 ft | 405 kts | 136° |
| 2026-04-28 21:56 | -34.33734 | -59.44605 | 21082 ft | 404 kts | 136° |
| 2026-04-28 21:57 | -34.35599 | -59.42134 | 20157 ft | 402 kts | 136° |
| 2026-04-28 21:57 | -34.37481 | -59.39636 | 19279 ft | 399 kts | 136° |
| 2026-04-28 21:57 | -34.39340 | -59.37165 | 18464 ft | 396 kts | 136° |
| 2026-04-28 21:57 | -34.41189 | -59.34703 | 17559 ft | 393 kts | 136° |
| 2026-04-28 21:58 | -34.43023 | -59.32265 | 16655 ft | 390 kts | 136° |
| 2026-04-28 21:58 | -34.44849 | -59.29834 | 15761 ft | 388 kts | 136° |
| 2026-04-28 21:58 | -34.46661 | -59.27423 | 14898 ft | 385 kts | 136° |
| 2026-04-28 21:58 | -34.48444 | -59.25046 | 14054 ft | 383 kts | 136° |
| 2026-04-28 21:59 | -34.50232 | -59.22658 | 13185 ft | 381 kts | 136° |
| 2026-04-28 21:59 | -34.52009 | -59.20287 | 12388 ft | 376 kts | 136° |
| 2026-04-28 21:59 | -34.53754 | -59.17956 | 11656 ft | 370 kts | 136° |
| 2026-04-28 22:00 | -34.57159 | -59.13403 | 10355 ft | 356 kts | 136° |
| 2026-04-28 22:00 | -34.58763 | -59.11250 | 10139 ft | 337 kts | 136° |
| 2026-04-28 22:00 | -34.60295 | -59.09193 | 9945 ft | 319 kts | 136° |
| 2026-04-28 22:00 | -34.61739 | -59.07253 | 9931 ft | 304 kts | 137° |
| 2026-04-28 22:01 | -34.63174 | -59.05335 | 9945 ft | 308 kts | 137° |
| 2026-04-28 22:01 | -34.64614 | -59.03412 | 9942 ft | 306 kts | 138° |
| 2026-04-28 22:01 | -34.66241 | -59.01849 | 9941 ft | 293 kts | 157° |
| 2026-04-28 22:01 | -34.68057 | -59.00757 | 9780 ft | 291 kts | 160° |
| 2026-04-28 22:02 | -34.69879 | -58.99711 | 9459 ft | 290 kts | 160° |
| 2026-04-28 22:02 | -34.71703 | -58.98671 | 9077 ft | 289 kts | 160° |
| 2026-04-28 22:02 | -34.73527 | -58.97634 | 8717 ft | 289 kts | 160° |
| 2026-04-28 22:02 | -34.75343 | -58.96603 | 8391 ft | 287 kts | 160° |
| 2026-04-28 22:03 | -34.77154 | -58.95576 | 8073 ft | 286 kts | 160° |
| 2026-04-28 22:03 | -34.78947 | -58.94560 | 7754 ft | 284 kts | 160° |
| 2026-04-28 22:03 | -34.80735 | -58.93546 | 7438 ft | 283 kts | 160° |
| 2026-04-28 22:03 | -34.82519 | -58.92535 | 7125 ft | 282 kts | 160° |
| 2026-04-28 22:04 | -34.84253 | -58.91549 | 6944 ft | 275 kts | 160° |
| 2026-04-28 22:04 | -34.85968 | -58.90569 | 6735 ft | 270 kts | 160° |
| 2026-04-28 22:04 | -34.87681 | -58.89588 | 6464 ft | 268 kts | 160° |
| 2026-04-28 22:04 | -34.89368 | -58.88623 | 6156 ft | 268 kts | 160° |
| 2026-04-28 22:05 | -34.91050 | -58.87665 | 5881 ft | 266 kts | 160° |
| 2026-04-28 22:05 | -34.92711 | -58.86729 | 5626 ft | 265 kts | 160° |
| 2026-04-28 22:05 | -34.94380 | -58.85802 | 5367 ft | 264 kts | 160° |
| 2026-04-28 22:05 | -34.96050 | -58.84885 | 5127 ft | 263 kts | 160° |
| 2026-04-28 22:06 | -34.97694 | -58.83932 | 4861 ft | 261 kts | 151° |
| 2026-04-28 22:06 | -34.99065 | -58.82437 | 4476 ft | 268 kts | 136° |
| 2026-04-28 22:06 | -35.00340 | -58.80757 | 4178 ft | 269 kts | 135° |
| 2026-04-28 22:06 | -35.01614 | -58.79085 | 3966 ft | 267 kts | 135° |
| 2026-04-28 22:07 | -35.02869 | -58.77440 | 3819 ft | 262 kts | 135° |
| 2026-04-28 22:07 | -35.04103 | -58.75825 | 3670 ft | 263 kts | 135° |
| 2026-04-28 22:07 | -35.05354 | -58.74191 | 3658 ft | 263 kts | 135° |
| 2026-04-28 22:07 | -35.06608 | -58.72556 | 3610 ft | 264 kts | 135° |
| 2026-04-28 22:08 | -35.07878 | -58.70905 | 3513 ft | 268 kts | 135° |
| 2026-04-28 22:08 | -35.09162 | -58.69243 | 3482 ft | 268 kts | 135° |
| 2026-04-28 22:08 | -35.10421 | -58.67613 | 3484 ft | 266 kts | 135° |
| 2026-04-28 22:08 | -35.11701 | -58.65954 | 3383 ft | 267 kts | 135° |
| 2026-04-28 22:09 | -35.12977 | -58.64307 | 3247 ft | 265 kts | 135° |
| 2026-04-28 22:09 | -35.14236 | -58.62691 | 3194 ft | 259 kts | 135° |
| 2026-04-28 22:09 | -35.15052 | -58.61645 | 3129 ft | 254 kts | 135° |
| 2026-04-28 22:09 | -35.16661 | -58.59587 | 3042 ft | 248 kts | 135° |
| 2026-04-28 22:10 | -35.17449 | -58.58578 | 3000 ft | 246 kts | 135° |
| 2026-04-28 22:10 | -35.18631 | -58.57058 | 2999 ft | 245 kts | 135° |
| 2026-04-28 22:10 | -35.19794 | -58.55560 | 3008 ft | 247 kts | 135° |
| 2026-04-28 22:10 | -35.20978 | -58.54033 | 3006 ft | 248 kts | 135° |
| 2026-04-28 22:11 | -35.22169 | -58.52496 | 3006 ft | 249 kts | 135° |
| 2026-04-28 22:11 | -35.23365 | -58.50958 | 3002 ft | 250 kts | 135° |
| 2026-04-28 22:11 | -35.24572 | -58.49410 | 2999 ft | 250 kts | 135° |
| 2026-04-28 22:11 | -35.25759 | -58.47886 | 2996 ft | 250 kts | 135° |
| 2026-04-28 22:12 | -35.26957 | -58.46346 | 3004 ft | 253 kts | 135° |
| 2026-04-28 22:12 | -35.28612 | -58.44159 | 2999 ft | 267 kts | 128° |
| 2026-04-28 22:12 | -35.29185 | -58.42833 | 2992 ft | 268 kts | 107° |
| 2026-04-28 22:12 | -35.29315 | -58.40628 | 2987 ft | 256 kts | 76° |
| 2026-04-28 22:13 | -35.28605 | -58.38721 | 2994 ft | 243 kts | 46° |
| 2026-04-28 22:13 | -35.27329 | -58.37481 | 3003 ft | 231 kts | 20° |
| 2026-04-28 22:13 | -35.25802 | -58.36958 | 3015 ft | 226 kts | 2° |
| 2026-04-28 22:13 | -35.24265 | -58.37083 | 2994 ft | 218 kts | 340° |
| 2026-04-28 22:14 | -35.22835 | -58.37687 | 3005 ft | 219 kts | 335° |
| 2026-04-28 22:14 | -35.21405 | -58.38370 | 3003 ft | 221 kts | 334° |
| 2026-04-28 22:14 | -35.19971 | -58.39056 | 3002 ft | 222 kts | 335° |
| 2026-04-28 22:14 | -35.18533 | -58.39739 | 2997 ft | 222 kts | 335° |
| 2026-04-28 22:15 | -35.17091 | -58.40416 | 2994 ft | 221 kts | 335° |
| 2026-04-28 22:15 | -35.15659 | -58.41084 | 2989 ft | 220 kts | 335° |
| 2026-04-28 22:15 | -35.14233 | -58.41743 | 2987 ft | 218 kts | 335° |
| 2026-04-28 22:15 | -35.12824 | -58.42393 | 2989 ft | 216 kts | 335° |
| 2026-04-28 22:16 | -35.11419 | -58.43037 | 2989 ft | 215 kts | 335° |
| 2026-04-28 22:16 | -35.10019 | -58.43679 | 2992 ft | 215 kts | 335° |
| 2026-04-28 22:16 | -35.08619 | -58.44320 | 2998 ft | 215 kts | 335° |
| 2026-04-28 22:16 | -35.07193 | -58.44872 | 3000 ft | 217 kts | 342° |
| 2026-04-28 22:17 | -35.05715 | -58.45271 | 3008 ft | 218 kts | 343° |
| 2026-04-28 22:17 | -35.04223 | -58.45664 | 3007 ft | 220 kts | 343° |
| 2026-04-28 22:17 | -35.02723 | -58.46068 | 3008 ft | 221 kts | 343° |
| 2026-04-28 22:17 | -35.01220 | -58.46477 | 3004 ft | 221 kts | 343° |
| 2026-04-28 22:18 | -34.99742 | -58.46881 | 2989 ft | 213 kts | 343° |
| 2026-04-28 22:18 | -34.98356 | -58.47274 | 2969 ft | 201 kts | 340° |
| 2026-04-28 22:18 | -34.97043 | -58.47730 | 2793 ft | 193 kts | 339° |
| 2026-04-28 22:18 | -34.95802 | -58.48180 | 2526 ft | 181 kts | 339° |
| 2026-04-28 22:19 | -34.94596 | -58.48605 | 2310 ft | 176 kts | 339° |
| 2026-04-28 22:19 | -34.93447 | -58.49005 | 2088 ft | 166 kts | 339° |
| 2026-04-28 22:19 | -34.92382 | -58.49376 | 1857 ft | 158 kts | 339° |
| 2026-04-28 22:19 | -34.91337 | -58.49741 | 1666 ft | 156 kts | 339° |
| 2026-04-28 22:20 | -34.90298 | -58.50103 | 1450 ft | 156 kts | 340° |
| 2026-04-28 22:20 | -34.89237 | -58.50473 | 1246 ft | 157 kts | 340° |
| 2026-04-28 22:20 | -34.88203 | -58.50832 | 1028 ft | 153 kts | 340° |
| 2026-04-28 22:20 | -34.87201 | -58.51181 | 816 ft | 148 kts | 343° |
| 2026-04-28 22:21 | -34.86219 | -58.51521 | 669 ft | 151 kts | 343° |
| 2026-04-28 22:21 | -34.85183 | -58.51884 | 485 ft | 153 kts | 343° |
| 2026-04-28 22:21 | -34.84175 | -58.52231 | 256 ft | 151 kts | 343° |
| 2026-04-28 22:21 | -34.83192 | -58.52576 | 91 ft | 137 kts | 343° |
| 2026-04-28 22:22 | -34.82435 | -58.52837 | 89 ft | 84 kts | 344° |
| 2026-04-28 22:22 | -34.82035 | -58.52978 | 88 ft | 51 kts | 344° |
| 2026-04-28 22:22 | -34.81741 | -58.53081 | 87 ft | 31 kts | 344° |
| 2026-04-28 22:22 | -34.81590 | -58.53136 | 88 ft | 17 kts | 330° |
| 2026-04-28 22:23 | -34.81523 | -58.53234 | 88 ft | 13 kts | 301° |
| 2026-04-28 22:23 | -34.81486 | -58.53312 | 85 ft | 0 kts | 299° |
| 2026-04-28 22:24 | -34.81486 | -58.53313 | 85 ft | 0 kts | 299° |
| 2026-04-28 22:24 | -34.81479 | -58.53327 | 85 ft | 3 kts | 299° |
| 2026-04-28 22:25 | -34.81468 | -58.53351 | 85 ft | 4 kts | 299° |
| 2026-04-28 22:25 | -34.81454 | -58.53382 | 82 ft | 4 kts | 300° |
| 2026-04-28 22:25 | -34.81438 | -58.53416 | 85 ft | 5 kts | 298° |
| 2026-04-28 22:25 | -34.81421 | -58.53454 | 83 ft | 5 kts | 299° |
| 2026-04-28 22:26 | -34.81403 | -58.53494 | 84 ft | 6 kts | 298° |
| 2026-04-28 22:26 | -34.81387 | -58.53553 | 82 ft | 8 kts | 269° |
| 2026-04-28 22:26 | -34.81431 | -58.53606 | 84 ft | 10 kts | 207° |
| 2026-04-28 22:26 | -34.81505 | -58.53647 | 82 ft | 13 kts | 207° |
| 2026-04-28 22:27 | -34.81580 | -58.53711 | 83 ft | 13 kts | 221° |
| 2026-04-28 22:27 | -34.81647 | -58.53785 | 83 ft | 12 kts | 223° |
| 2026-04-28 22:27 | -34.81650 | -58.53826 | 85 ft | 5 kts | 310° |
| 2026-04-28 22:27 | -34.81623 | -58.53859 | 85 ft | 6 kts | 317° |
| 2026-04-28 22:28 | -34.81593 | -58.53889 | 85 ft | 6 kts | 321° |
| 2026-04-28 22:28 | -34.81573 | -58.53909 | 84 ft | 2 kts | 322° |
| 2026-04-28 22:28 | -34.81562 | -58.53919 | 85 ft | 2 kts | 321° |
| 2026-04-28 22:28 | -34.81553 | -58.53928 | 85 ft | 0 kts | 321° |